<?xml version="1.0" encoding="UTF-8" standalone="no" ?>
<gpx xmlns="http://www.topografix.com/GPX/1/1" xmlns:xsi="http://www.w3.org/2001/XMLSchema-instance" xsi:schemaLocation="http://www.topografix.com/GPX/1/1 http://www.topografix.com/GPX/1/1/gpx.xsd" version="1.1" creator="VisuGPX - https://www.visugpx.com">
  <metadata>
    <name>POIROUX-Le Pay et Chateau de la Proutiere</name>
    <desc><![CDATA[Randonnee pedestre partant du Poiroux en longeant une partie du lac vers la D949 puis direction vers le Pay et le bois de la Garde pour finir par la traversee du bois du château de la Proutiere ( propriete privee/accord châtelain requis) et retour vers le Poiroux.
  ]]></desc>
  </metadata>
  <trk>
    <name><![CDATA[20180601224231-TWDkH]]></name>
    <trkseg>
      <trkpt lat="46.50494" lon="-1.53555">
        <ele>37</ele>
        <time>2018-05-31T12:16:26Z</time>
      </trkpt>
      <trkpt lat="46.50498" lon="-1.53561">
        <ele>37</ele>
        <time>2018-05-31T12:16:30Z</time>
      </trkpt>
      <trkpt lat="46.50516" lon="-1.53571">
        <ele>36</ele>
        <time>2018-05-31T12:16:48Z</time>
      </trkpt>
      <trkpt lat="46.5053" lon="-1.53582">
        <ele>36</ele>
        <time>2018-05-31T12:17:03Z</time>
      </trkpt>
      <trkpt lat="46.50547" lon="-1.53611">
        <ele>38</ele>
        <time>2018-05-31T12:17:26Z</time>
      </trkpt>
      <trkpt lat="46.50547" lon="-1.53617">
        <ele>38</ele>
        <time>2018-05-31T12:17:31Z</time>
      </trkpt>
      <trkpt lat="46.50566" lon="-1.53626">
        <ele>38</ele>
        <time>2018-05-31T12:17:46Z</time>
      </trkpt>
      <trkpt lat="46.50581" lon="-1.53631">
        <ele>38</ele>
        <time>2018-05-31T12:17:59Z</time>
      </trkpt>
      <trkpt lat="46.50596" lon="-1.53635">
        <ele>37</ele>
        <time>2018-05-31T12:18:12Z</time>
      </trkpt>
      <trkpt lat="46.50604" lon="-1.53645">
        <ele>37</ele>
        <time>2018-05-31T12:18:22Z</time>
      </trkpt>
      <trkpt lat="46.50604" lon="-1.5366">
        <ele>38</ele>
        <time>2018-05-31T12:18:32Z</time>
      </trkpt>
      <trkpt lat="46.50608" lon="-1.53672">
        <ele>39</ele>
        <time>2018-05-31T12:18:42Z</time>
      </trkpt>
      <trkpt lat="46.50617" lon="-1.53689">
        <ele>39</ele>
        <time>2018-05-31T12:18:55Z</time>
      </trkpt>
      <trkpt lat="46.50632" lon="-1.5371">
        <ele>39</ele>
        <time>2018-05-31T12:19:10Z</time>
      </trkpt>
      <trkpt lat="46.50632" lon="-1.53714">
        <ele>39</ele>
        <time>2018-05-31T12:19:13Z</time>
      </trkpt>
      <trkpt lat="46.50636" lon="-1.53756">
        <ele>39</ele>
        <time>2018-05-31T12:19:33Z</time>
      </trkpt>
      <trkpt lat="46.50645" lon="-1.53788">
        <ele>39</ele>
        <time>2018-05-31T12:19:51Z</time>
      </trkpt>
      <trkpt lat="46.50643" lon="-1.53808">
        <ele>38</ele>
        <time>2018-05-31T12:20:01Z</time>
      </trkpt>
      <trkpt lat="46.50644" lon="-1.53827">
        <ele>37</ele>
        <time>2018-05-31T12:20:11Z</time>
      </trkpt>
      <trkpt lat="46.50639" lon="-1.53853">
        <ele>37</ele>
        <time>2018-05-31T12:20:26Z</time>
      </trkpt>
      <trkpt lat="46.50637" lon="-1.53856">
        <ele>37</ele>
        <time>2018-05-31T12:20:29Z</time>
      </trkpt>
      <trkpt lat="46.5062" lon="-1.53874">
        <ele>37</ele>
        <time>2018-05-31T12:20:42Z</time>
      </trkpt>
      <trkpt lat="46.50608" lon="-1.53877">
        <ele>38</ele>
        <time>2018-05-31T12:20:54Z</time>
      </trkpt>
      <trkpt lat="46.50597" lon="-1.53878">
        <ele>38</ele>
        <time>2018-05-31T12:21:02Z</time>
      </trkpt>
      <trkpt lat="46.50583" lon="-1.5389">
        <ele>42</ele>
        <time>2018-05-31T12:21:15Z</time>
      </trkpt>
      <trkpt lat="46.50561" lon="-1.539">
        <ele>42</ele>
        <time>2018-05-31T12:21:30Z</time>
      </trkpt>
      <trkpt lat="46.50543" lon="-1.53919">
        <ele>41</ele>
        <time>2018-05-31T12:21:45Z</time>
      </trkpt>
      <trkpt lat="46.50534" lon="-1.53926">
        <ele>42</ele>
        <time>2018-05-31T12:21:53Z</time>
      </trkpt>
      <trkpt lat="46.50527" lon="-1.53937">
        <ele>43</ele>
        <time>2018-05-31T12:22:03Z</time>
      </trkpt>
      <trkpt lat="46.50525" lon="-1.53945">
        <ele>43</ele>
        <time>2018-05-31T12:22:08Z</time>
      </trkpt>
      <trkpt lat="46.50516" lon="-1.53961">
        <ele>42</ele>
        <time>2018-05-31T12:22:18Z</time>
      </trkpt>
      <trkpt lat="46.50521" lon="-1.53976">
        <ele>42</ele>
        <time>2018-05-31T12:22:25Z</time>
      </trkpt>
      <trkpt lat="46.50527" lon="-1.54008">
        <ele>40</ele>
        <time>2018-05-31T12:22:43Z</time>
      </trkpt>
      <trkpt lat="46.50523" lon="-1.54023">
        <ele>40</ele>
        <time>2018-05-31T12:22:51Z</time>
      </trkpt>
      <trkpt lat="46.50521" lon="-1.54065">
        <ele>38</ele>
        <time>2018-05-31T12:23:13Z</time>
      </trkpt>
      <trkpt lat="46.50516" lon="-1.54084">
        <ele>37</ele>
        <time>2018-05-31T12:23:21Z</time>
      </trkpt>
      <trkpt lat="46.50508" lon="-1.54103">
        <ele>37</ele>
        <time>2018-05-31T12:23:28Z</time>
      </trkpt>
      <trkpt lat="46.50504" lon="-1.54139">
        <ele>36</ele>
        <time>2018-05-31T12:23:46Z</time>
      </trkpt>
      <trkpt lat="46.50495" lon="-1.54171">
        <ele>34</ele>
        <time>2018-05-31T12:24:03Z</time>
      </trkpt>
      <trkpt lat="46.50486" lon="-1.54188">
        <ele>37</ele>
        <time>2018-05-31T12:24:13Z</time>
      </trkpt>
      <trkpt lat="46.50481" lon="-1.54195">
        <ele>38</ele>
        <time>2018-05-31T12:24:18Z</time>
      </trkpt>
      <trkpt lat="46.50465" lon="-1.54215">
        <ele>38</ele>
        <time>2018-05-31T12:24:33Z</time>
      </trkpt>
      <trkpt lat="46.50463" lon="-1.54217">
        <ele>38</ele>
        <time>2018-05-31T12:24:36Z</time>
      </trkpt>
      <trkpt lat="46.5044" lon="-1.54231">
        <ele>39</ele>
        <time>2018-05-31T12:24:58Z</time>
      </trkpt>
      <trkpt lat="46.50435" lon="-1.54232">
        <ele>39</ele>
        <time>2018-05-31T12:25:06Z</time>
      </trkpt>
      <trkpt lat="46.50415" lon="-1.54253">
        <ele>39</ele>
        <time>2018-05-31T12:25:26Z</time>
      </trkpt>
      <trkpt lat="46.50411" lon="-1.54255">
        <ele>39</ele>
        <time>2018-05-31T12:25:28Z</time>
      </trkpt>
      <trkpt lat="46.50404" lon="-1.54269">
        <ele>41</ele>
        <time>2018-05-31T12:25:39Z</time>
      </trkpt>
      <trkpt lat="46.50384" lon="-1.54293">
        <ele>42</ele>
        <time>2018-05-31T12:26:06Z</time>
      </trkpt>
      <trkpt lat="46.50383" lon="-1.54306">
        <ele>42</ele>
        <time>2018-05-31T12:26:19Z</time>
      </trkpt>
      <trkpt lat="46.50375" lon="-1.54317">
        <ele>42</ele>
        <time>2018-05-31T12:26:27Z</time>
      </trkpt>
      <trkpt lat="46.50367" lon="-1.54346">
        <ele>41</ele>
        <time>2018-05-31T12:26:42Z</time>
      </trkpt>
      <trkpt lat="46.50369" lon="-1.54367">
        <ele>41</ele>
        <time>2018-05-31T12:26:55Z</time>
      </trkpt>
      <trkpt lat="46.50368" lon="-1.54368">
        <ele>41</ele>
        <time>2018-05-31T12:26:57Z</time>
      </trkpt>
      <trkpt lat="46.50362" lon="-1.54367">
        <ele>41</ele>
        <time>2018-05-31T12:27:07Z</time>
      </trkpt>
      <trkpt lat="46.50368" lon="-1.54394">
        <ele>41</ele>
        <time>2018-05-31T12:27:30Z</time>
      </trkpt>
      <trkpt lat="46.50372" lon="-1.54403">
        <ele>40</ele>
        <time>2018-05-31T12:27:38Z</time>
      </trkpt>
      <trkpt lat="46.50376" lon="-1.54425">
        <ele>40</ele>
        <time>2018-05-31T12:27:50Z</time>
      </trkpt>
      <trkpt lat="46.50375" lon="-1.54437">
        <ele>40</ele>
        <time>2018-05-31T12:27:55Z</time>
      </trkpt>
      <trkpt lat="46.50379" lon="-1.54449">
        <ele>39</ele>
        <time>2018-05-31T12:28:03Z</time>
      </trkpt>
      <trkpt lat="46.5038" lon="-1.54456">
        <ele>39</ele>
        <time>2018-05-31T12:28:08Z</time>
      </trkpt>
      <trkpt lat="46.50386" lon="-1.54485">
        <ele>39</ele>
        <time>2018-05-31T12:28:26Z</time>
      </trkpt>
      <trkpt lat="46.50392" lon="-1.54497">
        <ele>39</ele>
        <time>2018-05-31T12:28:34Z</time>
      </trkpt>
      <trkpt lat="46.50399" lon="-1.54528">
        <ele>37</ele>
        <time>2018-05-31T12:28:52Z</time>
      </trkpt>
      <trkpt lat="46.50397" lon="-1.54541">
        <ele>37</ele>
        <time>2018-05-31T12:28:59Z</time>
      </trkpt>
      <trkpt lat="46.50385" lon="-1.54566">
        <ele>36</ele>
        <time>2018-05-31T12:29:18Z</time>
      </trkpt>
      <trkpt lat="46.5038" lon="-1.54577">
        <ele>36</ele>
        <time>2018-05-31T12:29:25Z</time>
      </trkpt>
      <trkpt lat="46.50378" lon="-1.54579">
        <ele>36</ele>
        <time>2018-05-31T12:29:28Z</time>
      </trkpt>
      <trkpt lat="46.50353" lon="-1.54586">
        <ele>35</ele>
        <time>2018-05-31T12:29:51Z</time>
      </trkpt>
      <trkpt lat="46.50333" lon="-1.54586">
        <ele>35</ele>
        <time>2018-05-31T12:30:06Z</time>
      </trkpt>
      <trkpt lat="46.50326" lon="-1.54584">
        <ele>35</ele>
        <time>2018-05-31T12:30:14Z</time>
      </trkpt>
      <trkpt lat="46.50317" lon="-1.54585">
        <ele>35</ele>
        <time>2018-05-31T12:30:22Z</time>
      </trkpt>
      <trkpt lat="46.50289" lon="-1.54598">
        <ele>36</ele>
        <time>2018-05-31T12:30:42Z</time>
      </trkpt>
      <trkpt lat="46.50288" lon="-1.546">
        <ele>36</ele>
        <time>2018-05-31T12:30:45Z</time>
      </trkpt>
      <trkpt lat="46.50257" lon="-1.54611">
        <ele>37</ele>
        <time>2018-05-31T12:31:08Z</time>
      </trkpt>
      <trkpt lat="46.50241" lon="-1.54622">
        <ele>40</ele>
        <time>2018-05-31T12:31:21Z</time>
      </trkpt>
      <trkpt lat="46.50239" lon="-1.54623">
        <ele>40</ele>
        <time>2018-05-31T12:31:24Z</time>
      </trkpt>
      <trkpt lat="46.5023" lon="-1.54632">
        <ele>41</ele>
        <time>2018-05-31T12:31:34Z</time>
      </trkpt>
      <trkpt lat="46.50209" lon="-1.54648">
        <ele>41</ele>
        <time>2018-05-31T12:31:49Z</time>
      </trkpt>
      <trkpt lat="46.50194" lon="-1.54662">
        <ele>42</ele>
        <time>2018-05-31T12:32:05Z</time>
      </trkpt>
      <trkpt lat="46.50182" lon="-1.5469">
        <ele>40</ele>
        <time>2018-05-31T12:32:28Z</time>
      </trkpt>
      <trkpt lat="46.50174" lon="-1.54703">
        <ele>39</ele>
        <time>2018-05-31T12:32:36Z</time>
      </trkpt>
      <trkpt lat="46.50171" lon="-1.54705">
        <ele>39</ele>
        <time>2018-05-31T12:32:46Z</time>
      </trkpt>
      <trkpt lat="46.50164" lon="-1.54702">
        <ele>41</ele>
        <time>2018-05-31T12:33:02Z</time>
      </trkpt>
      <trkpt lat="46.5016" lon="-1.54706">
        <ele>41</ele>
        <time>2018-05-31T12:33:07Z</time>
      </trkpt>
      <trkpt lat="46.50159" lon="-1.54731">
        <ele>39</ele>
        <time>2018-05-31T12:33:25Z</time>
      </trkpt>
      <trkpt lat="46.50151" lon="-1.54759">
        <ele>37</ele>
        <time>2018-05-31T12:33:43Z</time>
      </trkpt>
      <trkpt lat="46.50141" lon="-1.54776">
        <ele>37</ele>
        <time>2018-05-31T12:33:56Z</time>
      </trkpt>
      <trkpt lat="46.50134" lon="-1.54786">
        <ele>37</ele>
        <time>2018-05-31T12:34:04Z</time>
      </trkpt>
      <trkpt lat="46.50118" lon="-1.54789">
        <ele>37</ele>
        <time>2018-05-31T12:34:17Z</time>
      </trkpt>
      <trkpt lat="46.50114" lon="-1.54788">
        <ele>37</ele>
        <time>2018-05-31T12:34:19Z</time>
      </trkpt>
      <trkpt lat="46.50094" lon="-1.54778">
        <ele>37</ele>
        <time>2018-05-31T12:34:38Z</time>
      </trkpt>
      <trkpt lat="46.50086" lon="-1.54772">
        <ele>37</ele>
        <time>2018-05-31T12:34:45Z</time>
      </trkpt>
      <trkpt lat="46.50066" lon="-1.54764">
        <ele>38</ele>
        <time>2018-05-31T12:35:04Z</time>
      </trkpt>
      <trkpt lat="46.50059" lon="-1.54763">
        <ele>38</ele>
        <time>2018-05-31T12:35:09Z</time>
      </trkpt>
      <trkpt lat="46.50051" lon="-1.54757">
        <ele>38</ele>
        <time>2018-05-31T12:35:17Z</time>
      </trkpt>
      <trkpt lat="46.50033" lon="-1.5475">
        <ele>38</ele>
        <time>2018-05-31T12:35:35Z</time>
      </trkpt>
      <trkpt lat="46.50015" lon="-1.54747">
        <ele>40</ele>
        <time>2018-05-31T12:35:50Z</time>
      </trkpt>
      <trkpt lat="46.50009" lon="-1.54746">
        <ele>39</ele>
        <time>2018-05-31T12:35:55Z</time>
      </trkpt>
      <trkpt lat="46.49986" lon="-1.54746">
        <ele>39</ele>
        <time>2018-05-31T12:36:16Z</time>
      </trkpt>
      <trkpt lat="46.49971" lon="-1.54742">
        <ele>40</ele>
        <time>2018-05-31T12:36:28Z</time>
      </trkpt>
      <trkpt lat="46.4996" lon="-1.54743">
        <ele>40</ele>
        <time>2018-05-31T12:36:41Z</time>
      </trkpt>
      <trkpt lat="46.49948" lon="-1.54744">
        <ele>40</ele>
        <time>2018-05-31T12:36:51Z</time>
      </trkpt>
      <trkpt lat="46.49918" lon="-1.54753">
        <ele>37</ele>
        <time>2018-05-31T12:37:14Z</time>
      </trkpt>
      <trkpt lat="46.49912" lon="-1.54754">
        <ele>37</ele>
        <time>2018-05-31T12:37:19Z</time>
      </trkpt>
      <trkpt lat="46.49903" lon="-1.5476">
        <ele>37</ele>
        <time>2018-05-31T12:37:26Z</time>
      </trkpt>
      <trkpt lat="46.499" lon="-1.54766">
        <ele>37</ele>
        <time>2018-05-31T12:37:39Z</time>
      </trkpt>
      <trkpt lat="46.49886" lon="-1.54778">
        <ele>36</ele>
        <time>2018-05-31T12:37:54Z</time>
      </trkpt>
      <trkpt lat="46.49865" lon="-1.54779">
        <ele>37</ele>
        <time>2018-05-31T12:38:12Z</time>
      </trkpt>
      <trkpt lat="46.49851" lon="-1.54786">
        <ele>37</ele>
        <time>2018-05-31T12:38:25Z</time>
      </trkpt>
      <trkpt lat="46.4985" lon="-1.54787">
        <ele>37</ele>
        <time>2018-05-31T12:38:35Z</time>
      </trkpt>
      <trkpt lat="46.49853" lon="-1.54786">
        <ele>37</ele>
        <time>2018-05-31T12:38:50Z</time>
      </trkpt>
      <trkpt lat="46.49843" lon="-1.54803">
        <ele>36</ele>
        <time>2018-05-31T12:39:02Z</time>
      </trkpt>
      <trkpt lat="46.49842" lon="-1.54817">
        <ele>35</ele>
        <time>2018-05-31T12:39:10Z</time>
      </trkpt>
      <trkpt lat="46.49854" lon="-1.54835">
        <ele>34</ele>
        <time>2018-05-31T12:39:25Z</time>
      </trkpt>
      <trkpt lat="46.49867" lon="-1.54857">
        <ele>34</ele>
        <time>2018-05-31T12:39:40Z</time>
      </trkpt>
      <trkpt lat="46.4988" lon="-1.54873">
        <ele>34</ele>
        <time>2018-05-31T12:39:53Z</time>
      </trkpt>
      <trkpt lat="46.49889" lon="-1.54881">
        <ele>35</ele>
        <time>2018-05-31T12:40:03Z</time>
      </trkpt>
      <trkpt lat="46.49893" lon="-1.549">
        <ele>35</ele>
        <time>2018-05-31T12:40:16Z</time>
      </trkpt>
      <trkpt lat="46.49886" lon="-1.54906">
        <ele>35</ele>
        <time>2018-05-31T12:40:24Z</time>
      </trkpt>
      <trkpt lat="46.4987" lon="-1.54912">
        <ele>35</ele>
        <time>2018-05-31T12:40:39Z</time>
      </trkpt>
      <trkpt lat="46.49867" lon="-1.54922">
        <ele>37</ele>
        <time>2018-05-31T12:40:49Z</time>
      </trkpt>
      <trkpt lat="46.4986" lon="-1.54934">
        <ele>37</ele>
        <time>2018-05-31T12:41:00Z</time>
      </trkpt>
      <trkpt lat="46.49848" lon="-1.54953">
        <ele>37</ele>
        <time>2018-05-31T12:41:15Z</time>
      </trkpt>
      <trkpt lat="46.49835" lon="-1.54968">
        <ele>38</ele>
        <time>2018-05-31T12:41:25Z</time>
      </trkpt>
      <trkpt lat="46.49833" lon="-1.54976">
        <ele>38</ele>
        <time>2018-05-31T12:41:31Z</time>
      </trkpt>
      <trkpt lat="46.49811" lon="-1.55011">
        <ele>38</ele>
        <time>2018-05-31T12:41:57Z</time>
      </trkpt>
      <trkpt lat="46.49804" lon="-1.55037">
        <ele>38</ele>
        <time>2018-05-31T12:42:12Z</time>
      </trkpt>
      <trkpt lat="46.498" lon="-1.55044">
        <ele>38</ele>
        <time>2018-05-31T12:42:17Z</time>
      </trkpt>
      <trkpt lat="46.4979" lon="-1.55072">
        <ele>38</ele>
        <time>2018-05-31T12:42:35Z</time>
      </trkpt>
      <trkpt lat="46.4979" lon="-1.55076">
        <ele>38</ele>
        <time>2018-05-31T12:42:38Z</time>
      </trkpt>
      <trkpt lat="46.49785" lon="-1.55098">
        <ele>39</ele>
        <time>2018-05-31T12:42:51Z</time>
      </trkpt>
      <trkpt lat="46.49766" lon="-1.55126">
        <ele>39</ele>
        <time>2018-05-31T12:43:09Z</time>
      </trkpt>
      <trkpt lat="46.49759" lon="-1.5514">
        <ele>39</ele>
        <time>2018-05-31T12:43:16Z</time>
      </trkpt>
      <trkpt lat="46.49734" lon="-1.55161">
        <ele>37</ele>
        <time>2018-05-31T12:43:39Z</time>
      </trkpt>
      <trkpt lat="46.49724" lon="-1.55172">
        <ele>40</ele>
        <time>2018-05-31T12:43:52Z</time>
      </trkpt>
      <trkpt lat="46.49717" lon="-1.55176">
        <ele>40</ele>
        <time>2018-05-31T12:44:02Z</time>
      </trkpt>
      <trkpt lat="46.49715" lon="-1.55181">
        <ele>40</ele>
        <time>2018-05-31T12:44:17Z</time>
      </trkpt>
      <trkpt lat="46.49708" lon="-1.55185">
        <ele>40</ele>
        <time>2018-05-31T12:44:25Z</time>
      </trkpt>
      <trkpt lat="46.49695" lon="-1.55185">
        <ele>40</ele>
        <time>2018-05-31T12:44:38Z</time>
      </trkpt>
      <trkpt lat="46.49687" lon="-1.55187">
        <ele>40</ele>
        <time>2018-05-31T12:44:45Z</time>
      </trkpt>
      <trkpt lat="46.49664" lon="-1.55188">
        <ele>38</ele>
        <time>2018-05-31T12:45:03Z</time>
      </trkpt>
      <trkpt lat="46.4966" lon="-1.55187">
        <ele>38</ele>
        <time>2018-05-31T12:45:06Z</time>
      </trkpt>
      <trkpt lat="46.49633" lon="-1.55171">
        <ele>37</ele>
        <time>2018-05-31T12:45:31Z</time>
      </trkpt>
      <trkpt lat="46.49614" lon="-1.55172">
        <ele>37</ele>
        <time>2018-05-31T12:45:43Z</time>
      </trkpt>
      <trkpt lat="46.49604" lon="-1.55176">
        <ele>36</ele>
        <time>2018-05-31T12:45:51Z</time>
      </trkpt>
      <trkpt lat="46.49589" lon="-1.55192">
        <ele>37</ele>
        <time>2018-05-31T12:46:04Z</time>
      </trkpt>
      <trkpt lat="46.49569" lon="-1.55205">
        <ele>36</ele>
        <time>2018-05-31T12:46:22Z</time>
      </trkpt>
      <trkpt lat="46.4956" lon="-1.55216">
        <ele>36</ele>
        <time>2018-05-31T12:46:30Z</time>
      </trkpt>
      <trkpt lat="46.49557" lon="-1.5522">
        <ele>36</ele>
        <time>2018-05-31T12:46:33Z</time>
      </trkpt>
      <trkpt lat="46.49545" lon="-1.55261">
        <ele>38</ele>
        <time>2018-05-31T12:46:58Z</time>
      </trkpt>
      <trkpt lat="46.49533" lon="-1.55284">
        <ele>38</ele>
        <time>2018-05-31T12:47:14Z</time>
      </trkpt>
      <trkpt lat="46.49526" lon="-1.55294">
        <ele>38</ele>
        <time>2018-05-31T12:47:21Z</time>
      </trkpt>
      <trkpt lat="46.49515" lon="-1.5532">
        <ele>38</ele>
        <time>2018-05-31T12:47:40Z</time>
      </trkpt>
      <trkpt lat="46.49513" lon="-1.55321">
        <ele>38</ele>
        <time>2018-05-31T12:47:42Z</time>
      </trkpt>
      <trkpt lat="46.49502" lon="-1.55332">
        <ele>37</ele>
        <time>2018-05-31T12:47:55Z</time>
      </trkpt>
      <trkpt lat="46.4948" lon="-1.55344">
        <ele>37</ele>
        <time>2018-05-31T12:48:13Z</time>
      </trkpt>
      <trkpt lat="46.49467" lon="-1.55337">
        <ele>37</ele>
        <time>2018-05-31T12:48:26Z</time>
      </trkpt>
      <trkpt lat="46.49454" lon="-1.55324">
        <ele>35</ele>
        <time>2018-05-31T12:48:41Z</time>
      </trkpt>
      <trkpt lat="46.49452" lon="-1.55319">
        <ele>35</ele>
        <time>2018-05-31T12:48:46Z</time>
      </trkpt>
      <trkpt lat="46.49442" lon="-1.55316">
        <ele>35</ele>
        <time>2018-05-31T12:48:54Z</time>
      </trkpt>
      <trkpt lat="46.49434" lon="-1.55308">
        <ele>34</ele>
        <time>2018-05-31T12:49:04Z</time>
      </trkpt>
      <trkpt lat="46.49402" lon="-1.55288">
        <ele>33</ele>
        <time>2018-05-31T12:49:28Z</time>
      </trkpt>
      <trkpt lat="46.49394" lon="-1.55288">
        <ele>33</ele>
        <time>2018-05-31T12:49:36Z</time>
      </trkpt>
      <trkpt lat="46.4937" lon="-1.55292">
        <ele>33</ele>
        <time>2018-05-31T12:49:54Z</time>
      </trkpt>
      <trkpt lat="46.49362" lon="-1.55293">
        <ele>33</ele>
        <time>2018-05-31T12:49:59Z</time>
      </trkpt>
      <trkpt lat="46.49341" lon="-1.55296">
        <ele>33</ele>
        <time>2018-05-31T12:50:14Z</time>
      </trkpt>
      <trkpt lat="46.49335" lon="-1.55299">
        <ele>33</ele>
        <time>2018-05-31T12:50:19Z</time>
      </trkpt>
      <trkpt lat="46.49315" lon="-1.55307">
        <ele>33</ele>
        <time>2018-05-31T12:50:35Z</time>
      </trkpt>
      <trkpt lat="46.49299" lon="-1.55318">
        <ele>32</ele>
        <time>2018-05-31T12:50:46Z</time>
      </trkpt>
      <trkpt lat="46.49281" lon="-1.55348">
        <ele>34</ele>
        <time>2018-05-31T12:51:06Z</time>
      </trkpt>
      <trkpt lat="46.49276" lon="-1.55355">
        <ele>34</ele>
        <time>2018-05-31T12:51:12Z</time>
      </trkpt>
      <trkpt lat="46.49262" lon="-1.55367">
        <ele>34</ele>
        <time>2018-05-31T12:51:25Z</time>
      </trkpt>
      <trkpt lat="46.49254" lon="-1.55369">
        <ele>34</ele>
        <time>2018-05-31T12:51:30Z</time>
      </trkpt>
      <trkpt lat="46.49223" lon="-1.5539">
        <ele>33</ele>
        <time>2018-05-31T12:51:56Z</time>
      </trkpt>
      <trkpt lat="46.49205" lon="-1.55397">
        <ele>33</ele>
        <time>2018-05-31T12:52:09Z</time>
      </trkpt>
      <trkpt lat="46.49191" lon="-1.55399">
        <ele>33</ele>
        <time>2018-05-31T12:52:19Z</time>
      </trkpt>
      <trkpt lat="46.49181" lon="-1.55385">
        <ele>33</ele>
        <time>2018-05-31T12:52:32Z</time>
      </trkpt>
      <trkpt lat="46.49171" lon="-1.5538">
        <ele>33</ele>
        <time>2018-05-31T12:52:45Z</time>
      </trkpt>
      <trkpt lat="46.49167" lon="-1.55372">
        <ele>32</ele>
        <time>2018-05-31T12:52:50Z</time>
      </trkpt>
      <trkpt lat="46.49164" lon="-1.55355">
        <ele>31</ele>
        <time>2018-05-31T12:53:03Z</time>
      </trkpt>
      <trkpt lat="46.49158" lon="-1.55351">
        <ele>30</ele>
        <time>2018-05-31T12:53:08Z</time>
      </trkpt>
      <trkpt lat="46.4914" lon="-1.55348">
        <ele>31</ele>
        <time>2018-05-31T12:53:21Z</time>
      </trkpt>
      <trkpt lat="46.4913" lon="-1.55334">
        <ele>30</ele>
        <time>2018-05-31T12:53:37Z</time>
      </trkpt>
      <trkpt lat="46.49128" lon="-1.55334">
        <ele>30</ele>
        <time>2018-05-31T12:53:47Z</time>
      </trkpt>
      <trkpt lat="46.49128" lon="-1.55335">
        <ele>30</ele>
        <time>2018-05-31T12:53:50Z</time>
      </trkpt>
      <trkpt lat="46.49126" lon="-1.55336">
        <ele>30</ele>
        <time>2018-05-31T12:54:15Z</time>
      </trkpt>
      <trkpt lat="46.49126" lon="-1.55338">
        <ele>30</ele>
        <time>2018-05-31T12:54:43Z</time>
      </trkpt>
      <trkpt lat="46.49127" lon="-1.55336">
        <ele>30</ele>
        <time>2018-05-31T12:55:01Z</time>
      </trkpt>
      <trkpt lat="46.49126" lon="-1.55336">
        <ele>30</ele>
        <time>2018-05-31T12:55:03Z</time>
      </trkpt>
      <trkpt lat="46.49126" lon="-1.55336">
        <ele>30</ele>
        <time>2018-05-31T12:55:09Z</time>
      </trkpt>
      <trkpt lat="46.49127" lon="-1.55337">
        <ele>30</ele>
        <time>2018-05-31T12:55:21Z</time>
      </trkpt>
      <trkpt lat="46.49126" lon="-1.55337">
        <ele>30</ele>
        <time>2018-05-31T12:55:41Z</time>
      </trkpt>
      <trkpt lat="46.49126" lon="-1.55338">
        <ele>30</ele>
        <time>2018-05-31T12:55:46Z</time>
      </trkpt>
      <trkpt lat="46.49125" lon="-1.55339">
        <ele>30</ele>
        <time>2018-05-31T12:56:12Z</time>
      </trkpt>
      <trkpt lat="46.49126" lon="-1.55338">
        <ele>30</ele>
        <time>2018-05-31T12:56:24Z</time>
      </trkpt>
      <trkpt lat="46.49126" lon="-1.55335">
        <ele>30</ele>
        <time>2018-05-31T12:56:44Z</time>
      </trkpt>
      <trkpt lat="46.49126" lon="-1.55334">
        <ele>30</ele>
        <time>2018-05-31T12:56:54Z</time>
      </trkpt>
      <trkpt lat="46.49128" lon="-1.55334">
        <ele>30</ele>
        <time>2018-05-31T12:57:15Z</time>
      </trkpt>
      <trkpt lat="46.4913" lon="-1.5533">
        <ele>29</ele>
        <time>2018-05-31T12:57:33Z</time>
      </trkpt>
      <trkpt lat="46.4913" lon="-1.55326">
        <ele>29</ele>
        <time>2018-05-31T12:57:35Z</time>
      </trkpt>
      <trkpt lat="46.49133" lon="-1.5531">
        <ele>29</ele>
        <time>2018-05-31T12:57:45Z</time>
      </trkpt>
      <trkpt lat="46.49137" lon="-1.55295">
        <ele>29</ele>
        <time>2018-05-31T12:57:56Z</time>
      </trkpt>
      <trkpt lat="46.49144" lon="-1.5525">
        <ele>30</ele>
        <time>2018-05-31T12:58:22Z</time>
      </trkpt>
      <trkpt lat="46.49144" lon="-1.55245">
        <ele>32</ele>
        <time>2018-05-31T12:58:25Z</time>
      </trkpt>
      <trkpt lat="46.49128" lon="-1.55225">
        <ele>33</ele>
        <time>2018-05-31T12:58:43Z</time>
      </trkpt>
      <trkpt lat="46.49121" lon="-1.55223">
        <ele>33</ele>
        <time>2018-05-31T12:58:51Z</time>
      </trkpt>
      <trkpt lat="46.49103" lon="-1.5523">
        <ele>33</ele>
        <time>2018-05-31T12:59:03Z</time>
      </trkpt>
      <trkpt lat="46.49098" lon="-1.55234">
        <ele>32</ele>
        <time>2018-05-31T12:59:09Z</time>
      </trkpt>
      <trkpt lat="46.49081" lon="-1.55241">
        <ele>32</ele>
        <time>2018-05-31T12:59:22Z</time>
      </trkpt>
      <trkpt lat="46.49055" lon="-1.5526">
        <ele>31</ele>
        <time>2018-05-31T12:59:42Z</time>
      </trkpt>
      <trkpt lat="46.49043" lon="-1.5527">
        <ele>31</ele>
        <time>2018-05-31T12:59:52Z</time>
      </trkpt>
      <trkpt lat="46.49023" lon="-1.55283">
        <ele>32</ele>
        <time>2018-05-31T13:00:07Z</time>
      </trkpt>
      <trkpt lat="46.49009" lon="-1.55297">
        <ele>31</ele>
        <time>2018-05-31T13:00:17Z</time>
      </trkpt>
      <trkpt lat="46.48992" lon="-1.55323">
        <ele>31</ele>
        <time>2018-05-31T13:00:36Z</time>
      </trkpt>
      <trkpt lat="46.48975" lon="-1.5535">
        <ele>29</ele>
        <time>2018-05-31T13:00:56Z</time>
      </trkpt>
      <trkpt lat="46.4897" lon="-1.55357">
        <ele>29</ele>
        <time>2018-05-31T13:01:02Z</time>
      </trkpt>
      <trkpt lat="46.48959" lon="-1.55371">
        <ele>29</ele>
        <time>2018-05-31T13:01:12Z</time>
      </trkpt>
      <trkpt lat="46.48933" lon="-1.5541">
        <ele>28</ele>
        <time>2018-05-31T13:01:40Z</time>
      </trkpt>
      <trkpt lat="46.48925" lon="-1.55419">
        <ele>27</ele>
        <time>2018-05-31T13:01:47Z</time>
      </trkpt>
      <trkpt lat="46.48919" lon="-1.55423">
        <ele>27</ele>
        <time>2018-05-31T13:01:53Z</time>
      </trkpt>
      <trkpt lat="46.48908" lon="-1.55423">
        <ele>26</ele>
        <time>2018-05-31T13:02:03Z</time>
      </trkpt>
      <trkpt lat="46.48897" lon="-1.55418">
        <ele>26</ele>
        <time>2018-05-31T13:02:13Z</time>
      </trkpt>
      <trkpt lat="46.48889" lon="-1.55412">
        <ele>28</ele>
        <time>2018-05-31T13:02:23Z</time>
      </trkpt>
      <trkpt lat="46.48877" lon="-1.55395">
        <ele>28</ele>
        <time>2018-05-31T13:02:36Z</time>
      </trkpt>
      <trkpt lat="46.48862" lon="-1.55387">
        <ele>28</ele>
        <time>2018-05-31T13:02:48Z</time>
      </trkpt>
      <trkpt lat="46.48848" lon="-1.55381">
        <ele>29</ele>
        <time>2018-05-31T13:03:01Z</time>
      </trkpt>
      <trkpt lat="46.48821" lon="-1.55369">
        <ele>30</ele>
        <time>2018-05-31T13:03:21Z</time>
      </trkpt>
      <trkpt lat="46.488" lon="-1.5536">
        <ele>30</ele>
        <time>2018-05-31T13:03:39Z</time>
      </trkpt>
      <trkpt lat="46.48782" lon="-1.55357">
        <ele>31</ele>
        <time>2018-05-31T13:03:52Z</time>
      </trkpt>
      <trkpt lat="46.48772" lon="-1.55363">
        <ele>31</ele>
        <time>2018-05-31T13:04:00Z</time>
      </trkpt>
      <trkpt lat="46.48766" lon="-1.55369">
        <ele>31</ele>
        <time>2018-05-31T13:04:05Z</time>
      </trkpt>
      <trkpt lat="46.48762" lon="-1.55376">
        <ele>30</ele>
        <time>2018-05-31T13:04:10Z</time>
      </trkpt>
      <trkpt lat="46.48756" lon="-1.55402">
        <ele>30</ele>
        <time>2018-05-31T13:04:25Z</time>
      </trkpt>
      <trkpt lat="46.48749" lon="-1.55422">
        <ele>30</ele>
        <time>2018-05-31T13:04:38Z</time>
      </trkpt>
      <trkpt lat="46.48738" lon="-1.55441">
        <ele>29</ele>
        <time>2018-05-31T13:04:51Z</time>
      </trkpt>
      <trkpt lat="46.48718" lon="-1.55463">
        <ele>28</ele>
        <time>2018-05-31T13:05:09Z</time>
      </trkpt>
      <trkpt lat="46.4871" lon="-1.55474">
        <ele>28</ele>
        <time>2018-05-31T13:05:17Z</time>
      </trkpt>
      <trkpt lat="46.48699" lon="-1.55493">
        <ele>28</ele>
        <time>2018-05-31T13:05:30Z</time>
      </trkpt>
      <trkpt lat="46.48682" lon="-1.55529">
        <ele>25</ele>
        <time>2018-05-31T13:05:53Z</time>
      </trkpt>
      <trkpt lat="46.48672" lon="-1.55541">
        <ele>24</ele>
        <time>2018-05-31T13:06:03Z</time>
      </trkpt>
      <trkpt lat="46.48663" lon="-1.55548">
        <ele>26</ele>
        <time>2018-05-31T13:06:11Z</time>
      </trkpt>
      <trkpt lat="46.48645" lon="-1.55556">
        <ele>26</ele>
        <time>2018-05-31T13:06:26Z</time>
      </trkpt>
      <trkpt lat="46.48631" lon="-1.5556">
        <ele>27</ele>
        <time>2018-05-31T13:06:36Z</time>
      </trkpt>
      <trkpt lat="46.48612" lon="-1.55564">
        <ele>27</ele>
        <time>2018-05-31T13:06:52Z</time>
      </trkpt>
      <trkpt lat="46.48594" lon="-1.55567">
        <ele>27</ele>
        <time>2018-05-31T13:07:05Z</time>
      </trkpt>
      <trkpt lat="46.48574" lon="-1.5557">
        <ele>28</ele>
        <time>2018-05-31T13:07:20Z</time>
      </trkpt>
      <trkpt lat="46.4856" lon="-1.55576">
        <ele>29</ele>
        <time>2018-05-31T13:07:31Z</time>
      </trkpt>
      <trkpt lat="46.48548" lon="-1.5558">
        <ele>29</ele>
        <time>2018-05-31T13:07:41Z</time>
      </trkpt>
      <trkpt lat="46.48538" lon="-1.55588">
        <ele>26</ele>
        <time>2018-05-31T13:07:49Z</time>
      </trkpt>
      <trkpt lat="46.4852" lon="-1.5562">
        <ele>25</ele>
        <time>2018-05-31T13:08:12Z</time>
      </trkpt>
      <trkpt lat="46.48505" lon="-1.55632">
        <ele>25</ele>
        <time>2018-05-31T13:08:25Z</time>
      </trkpt>
      <trkpt lat="46.48492" lon="-1.55637">
        <ele>26</ele>
        <time>2018-05-31T13:08:35Z</time>
      </trkpt>
      <trkpt lat="46.48475" lon="-1.5564">
        <ele>27</ele>
        <time>2018-05-31T13:08:49Z</time>
      </trkpt>
      <trkpt lat="46.48461" lon="-1.55637">
        <ele>27</ele>
        <time>2018-05-31T13:08:59Z</time>
      </trkpt>
      <trkpt lat="46.48445" lon="-1.55625">
        <ele>28</ele>
        <time>2018-05-31T13:09:15Z</time>
      </trkpt>
      <trkpt lat="46.48433" lon="-1.55615">
        <ele>29</ele>
        <time>2018-05-31T13:09:26Z</time>
      </trkpt>
      <trkpt lat="46.4843" lon="-1.55614">
        <ele>29</ele>
        <time>2018-05-31T13:09:28Z</time>
      </trkpt>
      <trkpt lat="46.48426" lon="-1.55595">
        <ele>30</ele>
        <time>2018-05-31T13:09:39Z</time>
      </trkpt>
      <trkpt lat="46.48412" lon="-1.55563">
        <ele>33</ele>
        <time>2018-05-31T13:10:02Z</time>
      </trkpt>
      <trkpt lat="46.4841" lon="-1.55542">
        <ele>34</ele>
        <time>2018-05-31T13:10:15Z</time>
      </trkpt>
      <trkpt lat="46.48408" lon="-1.55535">
        <ele>34</ele>
        <time>2018-05-31T13:10:21Z</time>
      </trkpt>
      <trkpt lat="46.48398" lon="-1.55526">
        <ele>34</ele>
        <time>2018-05-31T13:10:36Z</time>
      </trkpt>
      <trkpt lat="46.48389" lon="-1.55524">
        <ele>34</ele>
        <time>2018-05-31T13:10:54Z</time>
      </trkpt>
      <trkpt lat="46.48375" lon="-1.55527">
        <ele>34</ele>
        <time>2018-05-31T13:11:07Z</time>
      </trkpt>
      <trkpt lat="46.48367" lon="-1.55527">
        <ele>34</ele>
        <time>2018-05-31T13:11:12Z</time>
      </trkpt>
      <trkpt lat="46.48358" lon="-1.55524">
        <ele>34</ele>
        <time>2018-05-31T13:11:20Z</time>
      </trkpt>
      <trkpt lat="46.48343" lon="-1.55522">
        <ele>34</ele>
        <time>2018-05-31T13:11:33Z</time>
      </trkpt>
      <trkpt lat="46.48338" lon="-1.55521">
        <ele>34</ele>
        <time>2018-05-31T13:11:38Z</time>
      </trkpt>
      <trkpt lat="46.48327" lon="-1.55524">
        <ele>34</ele>
        <time>2018-05-31T13:11:48Z</time>
      </trkpt>
      <trkpt lat="46.48312" lon="-1.55523">
        <ele>34</ele>
        <time>2018-05-31T13:12:00Z</time>
      </trkpt>
      <trkpt lat="46.48293" lon="-1.55521">
        <ele>34</ele>
        <time>2018-05-31T13:12:13Z</time>
      </trkpt>
      <trkpt lat="46.4826" lon="-1.55523">
        <ele>34</ele>
        <time>2018-05-31T13:12:38Z</time>
      </trkpt>
      <trkpt lat="46.48255" lon="-1.55525">
        <ele>34</ele>
        <time>2018-05-31T13:12:43Z</time>
      </trkpt>
      <trkpt lat="46.48238" lon="-1.55526">
        <ele>33</ele>
        <time>2018-05-31T13:12:56Z</time>
      </trkpt>
      <trkpt lat="46.48188" lon="-1.55536">
        <ele>33</ele>
        <time>2018-05-31T13:13:29Z</time>
      </trkpt>
      <trkpt lat="46.48181" lon="-1.5554">
        <ele>33</ele>
        <time>2018-05-31T13:13:35Z</time>
      </trkpt>
      <trkpt lat="46.48166" lon="-1.55544">
        <ele>32</ele>
        <time>2018-05-31T13:13:48Z</time>
      </trkpt>
      <trkpt lat="46.48154" lon="-1.55544">
        <ele>32</ele>
        <time>2018-05-31T13:13:58Z</time>
      </trkpt>
      <trkpt lat="46.48141" lon="-1.55546">
        <ele>32</ele>
        <time>2018-05-31T13:14:09Z</time>
      </trkpt>
      <trkpt lat="46.48108" lon="-1.55555">
        <ele>31</ele>
        <time>2018-05-31T13:14:34Z</time>
      </trkpt>
      <trkpt lat="46.48091" lon="-1.55557">
        <ele>31</ele>
        <time>2018-05-31T13:14:47Z</time>
      </trkpt>
      <trkpt lat="46.48087" lon="-1.55558">
        <ele>31</ele>
        <time>2018-05-31T13:14:50Z</time>
      </trkpt>
      <trkpt lat="46.48068" lon="-1.55566">
        <ele>29</ele>
        <time>2018-05-31T13:15:08Z</time>
      </trkpt>
      <trkpt lat="46.48045" lon="-1.5557">
        <ele>29</ele>
        <time>2018-05-31T13:15:26Z</time>
      </trkpt>
      <trkpt lat="46.4803" lon="-1.55572">
        <ele>29</ele>
        <time>2018-05-31T13:15:37Z</time>
      </trkpt>
      <trkpt lat="46.48017" lon="-1.55575">
        <ele>29</ele>
        <time>2018-05-31T13:15:47Z</time>
      </trkpt>
      <trkpt lat="46.47993" lon="-1.55576">
        <ele>27</ele>
        <time>2018-05-31T13:16:05Z</time>
      </trkpt>
      <trkpt lat="46.47982" lon="-1.55574">
        <ele>27</ele>
        <time>2018-05-31T13:16:15Z</time>
      </trkpt>
      <trkpt lat="46.47975" lon="-1.55574">
        <ele>26</ele>
        <time>2018-05-31T13:16:20Z</time>
      </trkpt>
      <trkpt lat="46.4795" lon="-1.55579">
        <ele>26</ele>
        <time>2018-05-31T13:16:38Z</time>
      </trkpt>
      <trkpt lat="46.47941" lon="-1.55579">
        <ele>25</ele>
        <time>2018-05-31T13:16:46Z</time>
      </trkpt>
      <trkpt lat="46.47928" lon="-1.55567">
        <ele>25</ele>
        <time>2018-05-31T13:16:56Z</time>
      </trkpt>
      <trkpt lat="46.47911" lon="-1.55557">
        <ele>25</ele>
        <time>2018-05-31T13:17:09Z</time>
      </trkpt>
      <trkpt lat="46.47903" lon="-1.55549">
        <ele>25</ele>
        <time>2018-05-31T13:17:17Z</time>
      </trkpt>
      <trkpt lat="46.47895" lon="-1.55544">
        <ele>25</ele>
        <time>2018-05-31T13:17:24Z</time>
      </trkpt>
      <trkpt lat="46.47887" lon="-1.55536">
        <ele>25</ele>
        <time>2018-05-31T13:17:32Z</time>
      </trkpt>
      <trkpt lat="46.47862" lon="-1.5551">
        <ele>25</ele>
        <time>2018-05-31T13:17:55Z</time>
      </trkpt>
      <trkpt lat="46.47857" lon="-1.55504">
        <ele>26</ele>
        <time>2018-05-31T13:18:00Z</time>
      </trkpt>
      <trkpt lat="46.47849" lon="-1.55496">
        <ele>26</ele>
        <time>2018-05-31T13:18:08Z</time>
      </trkpt>
      <trkpt lat="46.47838" lon="-1.5549">
        <ele>26</ele>
        <time>2018-05-31T13:18:18Z</time>
      </trkpt>
      <trkpt lat="46.47832" lon="-1.55489">
        <ele>27</ele>
        <time>2018-05-31T13:18:31Z</time>
      </trkpt>
      <trkpt lat="46.4783" lon="-1.55489">
        <ele>27</ele>
        <time>2018-05-31T13:18:51Z</time>
      </trkpt>
      <trkpt lat="46.4783" lon="-1.5549">
        <ele>27</ele>
        <time>2018-05-31T13:18:56Z</time>
      </trkpt>
      <trkpt lat="46.47833" lon="-1.55492">
        <ele>27</ele>
        <time>2018-05-31T13:19:09Z</time>
      </trkpt>
      <trkpt lat="46.47831" lon="-1.55492">
        <ele>27</ele>
        <time>2018-05-31T13:19:22Z</time>
      </trkpt>
      <trkpt lat="46.4783" lon="-1.55492">
        <ele>27</ele>
        <time>2018-05-31T13:19:30Z</time>
      </trkpt>
      <trkpt lat="46.47829" lon="-1.55494">
        <ele>27</ele>
        <time>2018-05-31T13:19:50Z</time>
      </trkpt>
      <trkpt lat="46.47829" lon="-1.55493">
        <ele>27</ele>
        <time>2018-05-31T13:20:01Z</time>
      </trkpt>
      <trkpt lat="46.47828" lon="-1.55491">
        <ele>27</ele>
        <time>2018-05-31T13:20:06Z</time>
      </trkpt>
      <trkpt lat="46.47829" lon="-1.55492">
        <ele>27</ele>
        <time>2018-05-31T13:20:08Z</time>
      </trkpt>
      <trkpt lat="46.4783" lon="-1.55488">
        <ele>27</ele>
        <time>2018-05-31T13:20:47Z</time>
      </trkpt>
      <trkpt lat="46.47832" lon="-1.55486">
        <ele>27</ele>
        <time>2018-05-31T13:21:07Z</time>
      </trkpt>
      <trkpt lat="46.47832" lon="-1.55486">
        <ele>27</ele>
        <time>2018-05-31T13:21:10Z</time>
      </trkpt>
      <trkpt lat="46.47831" lon="-1.55485">
        <ele>27</ele>
        <time>2018-05-31T13:21:20Z</time>
      </trkpt>
      <trkpt lat="46.4783" lon="-1.55484">
        <ele>27</ele>
        <time>2018-05-31T13:21:35Z</time>
      </trkpt>
      <trkpt lat="46.47828" lon="-1.55482">
        <ele>27</ele>
        <time>2018-05-31T13:21:48Z</time>
      </trkpt>
      <trkpt lat="46.47827" lon="-1.55482">
        <ele>27</ele>
        <time>2018-05-31T13:22:12Z</time>
      </trkpt>
      <trkpt lat="46.47827" lon="-1.55481">
        <ele>27</ele>
        <time>2018-05-31T13:22:25Z</time>
      </trkpt>
      <trkpt lat="46.47827" lon="-1.55482">
        <ele>27</ele>
        <time>2018-05-31T13:22:38Z</time>
      </trkpt>
      <trkpt lat="46.47826" lon="-1.55483">
        <ele>27</ele>
        <time>2018-05-31T13:22:48Z</time>
      </trkpt>
      <trkpt lat="46.47827" lon="-1.55483">
        <ele>27</ele>
        <time>2018-05-31T13:22:51Z</time>
      </trkpt>
      <trkpt lat="46.47826" lon="-1.55481">
        <ele>27</ele>
        <time>2018-05-31T13:23:11Z</time>
      </trkpt>
      <trkpt lat="46.47828" lon="-1.55482">
        <ele>27</ele>
        <time>2018-05-31T13:23:32Z</time>
      </trkpt>
      <trkpt lat="46.47829" lon="-1.55482">
        <ele>27</ele>
        <time>2018-05-31T13:23:37Z</time>
      </trkpt>
      <trkpt lat="46.47827" lon="-1.55479">
        <ele>27</ele>
        <time>2018-05-31T13:23:40Z</time>
      </trkpt>
      <trkpt lat="46.47818" lon="-1.55467">
        <ele>27</ele>
        <time>2018-05-31T13:23:53Z</time>
      </trkpt>
      <trkpt lat="46.47804" lon="-1.55446">
        <ele>27</ele>
        <time>2018-05-31T13:24:11Z</time>
      </trkpt>
      <trkpt lat="46.47798" lon="-1.5544">
        <ele>27</ele>
        <time>2018-05-31T13:24:16Z</time>
      </trkpt>
      <trkpt lat="46.47779" lon="-1.55419">
        <ele>27</ele>
        <time>2018-05-31T13:24:34Z</time>
      </trkpt>
      <trkpt lat="46.47769" lon="-1.55404">
        <ele>28</ele>
        <time>2018-05-31T13:24:44Z</time>
      </trkpt>
      <trkpt lat="46.47757" lon="-1.55392">
        <ele>28</ele>
        <time>2018-05-31T13:24:54Z</time>
      </trkpt>
      <trkpt lat="46.4774" lon="-1.55378">
        <ele>28</ele>
        <time>2018-05-31T13:25:07Z</time>
      </trkpt>
      <trkpt lat="46.47729" lon="-1.55367">
        <ele>28</ele>
        <time>2018-05-31T13:25:20Z</time>
      </trkpt>
      <trkpt lat="46.47725" lon="-1.55366">
        <ele>28</ele>
        <time>2018-05-31T13:25:25Z</time>
      </trkpt>
      <trkpt lat="46.47711" lon="-1.55356">
        <ele>28</ele>
        <time>2018-05-31T13:25:38Z</time>
      </trkpt>
      <trkpt lat="46.47702" lon="-1.55352">
        <ele>28</ele>
        <time>2018-05-31T13:25:51Z</time>
      </trkpt>
      <trkpt lat="46.47698" lon="-1.55353">
        <ele>28</ele>
        <time>2018-05-31T13:26:11Z</time>
      </trkpt>
      <trkpt lat="46.47696" lon="-1.55352">
        <ele>28</ele>
        <time>2018-05-31T13:26:19Z</time>
      </trkpt>
      <trkpt lat="46.47695" lon="-1.55353">
        <ele>28</ele>
        <time>2018-05-31T13:26:30Z</time>
      </trkpt>
      <trkpt lat="46.47694" lon="-1.55349">
        <ele>28</ele>
        <time>2018-05-31T13:26:40Z</time>
      </trkpt>
      <trkpt lat="46.47689" lon="-1.55344">
        <ele>29</ele>
        <time>2018-05-31T13:26:48Z</time>
      </trkpt>
      <trkpt lat="46.47672" lon="-1.55333">
        <ele>29</ele>
        <time>2018-05-31T13:27:04Z</time>
      </trkpt>
      <trkpt lat="46.47659" lon="-1.55319">
        <ele>29</ele>
        <time>2018-05-31T13:27:17Z</time>
      </trkpt>
      <trkpt lat="46.47637" lon="-1.55302">
        <ele>29</ele>
        <time>2018-05-31T13:27:36Z</time>
      </trkpt>
      <trkpt lat="46.47605" lon="-1.5528">
        <ele>30</ele>
        <time>2018-05-31T13:28:02Z</time>
      </trkpt>
      <trkpt lat="46.47596" lon="-1.55273">
        <ele>30</ele>
        <time>2018-05-31T13:28:10Z</time>
      </trkpt>
      <trkpt lat="46.47566" lon="-1.55254">
        <ele>31</ele>
        <time>2018-05-31T13:28:38Z</time>
      </trkpt>
      <trkpt lat="46.47559" lon="-1.55251">
        <ele>31</ele>
        <time>2018-05-31T13:28:46Z</time>
      </trkpt>
      <trkpt lat="46.47545" lon="-1.55238">
        <ele>31</ele>
        <time>2018-05-31T13:29:01Z</time>
      </trkpt>
      <trkpt lat="46.47524" lon="-1.55225">
        <ele>31</ele>
        <time>2018-05-31T13:29:17Z</time>
      </trkpt>
      <trkpt lat="46.47512" lon="-1.55215">
        <ele>31</ele>
        <time>2018-05-31T13:29:27Z</time>
      </trkpt>
      <trkpt lat="46.47492" lon="-1.55204">
        <ele>31</ele>
        <time>2018-05-31T13:29:42Z</time>
      </trkpt>
      <trkpt lat="46.47483" lon="-1.55199">
        <ele>31</ele>
        <time>2018-05-31T13:29:50Z</time>
      </trkpt>
      <trkpt lat="46.47457" lon="-1.55179">
        <ele>32</ele>
        <time>2018-05-31T13:30:10Z</time>
      </trkpt>
      <trkpt lat="46.47435" lon="-1.55167">
        <ele>32</ele>
        <time>2018-05-31T13:30:28Z</time>
      </trkpt>
      <trkpt lat="46.47416" lon="-1.5515">
        <ele>32</ele>
        <time>2018-05-31T13:30:46Z</time>
      </trkpt>
      <trkpt lat="46.47411" lon="-1.55148">
        <ele>32</ele>
        <time>2018-05-31T13:30:51Z</time>
      </trkpt>
      <trkpt lat="46.47404" lon="-1.55141">
        <ele>32</ele>
        <time>2018-05-31T13:30:59Z</time>
      </trkpt>
      <trkpt lat="46.47396" lon="-1.55137">
        <ele>32</ele>
        <time>2018-05-31T13:31:07Z</time>
      </trkpt>
      <trkpt lat="46.47378" lon="-1.55129">
        <ele>32</ele>
        <time>2018-05-31T13:31:22Z</time>
      </trkpt>
      <trkpt lat="46.47361" lon="-1.55115">
        <ele>32</ele>
        <time>2018-05-31T13:31:37Z</time>
      </trkpt>
      <trkpt lat="46.47351" lon="-1.55104">
        <ele>32</ele>
        <time>2018-05-31T13:31:48Z</time>
      </trkpt>
      <trkpt lat="46.47328" lon="-1.55087">
        <ele>32</ele>
        <time>2018-05-31T13:32:08Z</time>
      </trkpt>
      <trkpt lat="46.47319" lon="-1.55079">
        <ele>32</ele>
        <time>2018-05-31T13:32:16Z</time>
      </trkpt>
      <trkpt lat="46.47302" lon="-1.55068">
        <ele>32</ele>
        <time>2018-05-31T13:32:29Z</time>
      </trkpt>
      <trkpt lat="46.47296" lon="-1.55064">
        <ele>32</ele>
        <time>2018-05-31T13:32:34Z</time>
      </trkpt>
      <trkpt lat="46.47292" lon="-1.55064">
        <ele>32</ele>
        <time>2018-05-31T13:32:37Z</time>
      </trkpt>
      <trkpt lat="46.47274" lon="-1.55056">
        <ele>33</ele>
        <time>2018-05-31T13:32:52Z</time>
      </trkpt>
      <trkpt lat="46.47265" lon="-1.55055">
        <ele>33</ele>
        <time>2018-05-31T13:33:00Z</time>
      </trkpt>
      <trkpt lat="46.47243" lon="-1.55048">
        <ele>33</ele>
        <time>2018-05-31T13:33:18Z</time>
      </trkpt>
      <trkpt lat="46.4723" lon="-1.55045">
        <ele>32</ele>
        <time>2018-05-31T13:33:28Z</time>
      </trkpt>
      <trkpt lat="46.47218" lon="-1.55041">
        <ele>32</ele>
        <time>2018-05-31T13:33:38Z</time>
      </trkpt>
      <trkpt lat="46.47211" lon="-1.55037">
        <ele>32</ele>
        <time>2018-05-31T13:33:44Z</time>
      </trkpt>
      <trkpt lat="46.47199" lon="-1.55036">
        <ele>32</ele>
        <time>2018-05-31T13:33:54Z</time>
      </trkpt>
      <trkpt lat="46.47193" lon="-1.55033">
        <ele>32</ele>
        <time>2018-05-31T13:34:30Z</time>
      </trkpt>
      <trkpt lat="46.47194" lon="-1.55028">
        <ele>32</ele>
        <time>2018-05-31T13:34:35Z</time>
      </trkpt>
      <trkpt lat="46.47194" lon="-1.55009">
        <ele>32</ele>
        <time>2018-05-31T13:34:48Z</time>
      </trkpt>
      <trkpt lat="46.47198" lon="-1.54997">
        <ele>33</ele>
        <time>2018-05-31T13:34:56Z</time>
      </trkpt>
      <trkpt lat="46.47201" lon="-1.5497">
        <ele>33</ele>
        <time>2018-05-31T13:35:12Z</time>
      </trkpt>
      <trkpt lat="46.47206" lon="-1.54948">
        <ele>33</ele>
        <time>2018-05-31T13:35:25Z</time>
      </trkpt>
      <trkpt lat="46.47208" lon="-1.54941">
        <ele>33</ele>
        <time>2018-05-31T13:35:35Z</time>
      </trkpt>
      <trkpt lat="46.47213" lon="-1.54942">
        <ele>33</ele>
        <time>2018-05-31T13:35:40Z</time>
      </trkpt>
      <trkpt lat="46.47221" lon="-1.54936">
        <ele>33</ele>
        <time>2018-05-31T13:35:51Z</time>
      </trkpt>
      <trkpt lat="46.47237" lon="-1.54931">
        <ele>33</ele>
        <time>2018-05-31T13:36:07Z</time>
      </trkpt>
      <trkpt lat="46.47243" lon="-1.54929">
        <ele>33</ele>
        <time>2018-05-31T13:36:12Z</time>
      </trkpt>
      <trkpt lat="46.47261" lon="-1.54925">
        <ele>34</ele>
        <time>2018-05-31T13:36:27Z</time>
      </trkpt>
      <trkpt lat="46.47284" lon="-1.54916">
        <ele>35</ele>
        <time>2018-05-31T13:36:43Z</time>
      </trkpt>
      <trkpt lat="46.47312" lon="-1.54906">
        <ele>35</ele>
        <time>2018-05-31T13:37:04Z</time>
      </trkpt>
      <trkpt lat="46.47323" lon="-1.549">
        <ele>35</ele>
        <time>2018-05-31T13:37:12Z</time>
      </trkpt>
      <trkpt lat="46.4733" lon="-1.54895">
        <ele>35</ele>
        <time>2018-05-31T13:37:17Z</time>
      </trkpt>
      <trkpt lat="46.47347" lon="-1.54876">
        <ele>35</ele>
        <time>2018-05-31T13:37:32Z</time>
      </trkpt>
      <trkpt lat="46.47358" lon="-1.54865">
        <ele>35</ele>
        <time>2018-05-31T13:37:42Z</time>
      </trkpt>
      <trkpt lat="46.47376" lon="-1.54848">
        <ele>35</ele>
        <time>2018-05-31T13:37:58Z</time>
      </trkpt>
      <trkpt lat="46.47381" lon="-1.54843">
        <ele>35</ele>
        <time>2018-05-31T13:38:03Z</time>
      </trkpt>
      <trkpt lat="46.47405" lon="-1.54819">
        <ele>35</ele>
        <time>2018-05-31T13:38:23Z</time>
      </trkpt>
      <trkpt lat="46.47416" lon="-1.54805">
        <ele>35</ele>
        <time>2018-05-31T13:38:34Z</time>
      </trkpt>
      <trkpt lat="46.47419" lon="-1.54799">
        <ele>35</ele>
        <time>2018-05-31T13:38:39Z</time>
      </trkpt>
      <trkpt lat="46.47436" lon="-1.54775">
        <ele>35</ele>
        <time>2018-05-31T13:38:59Z</time>
      </trkpt>
      <trkpt lat="46.47452" lon="-1.5476">
        <ele>35</ele>
        <time>2018-05-31T13:39:12Z</time>
      </trkpt>
      <trkpt lat="46.47467" lon="-1.54743">
        <ele>35</ele>
        <time>2018-05-31T13:39:27Z</time>
      </trkpt>
      <trkpt lat="46.47478" lon="-1.54733">
        <ele>35</ele>
        <time>2018-05-31T13:39:37Z</time>
      </trkpt>
      <trkpt lat="46.47491" lon="-1.54717">
        <ele>35</ele>
        <time>2018-05-31T13:39:50Z</time>
      </trkpt>
      <trkpt lat="46.47503" lon="-1.54699">
        <ele>35</ele>
        <time>2018-05-31T13:40:03Z</time>
      </trkpt>
      <trkpt lat="46.4751" lon="-1.54694">
        <ele>35</ele>
        <time>2018-05-31T13:40:08Z</time>
      </trkpt>
      <trkpt lat="46.47532" lon="-1.54666">
        <ele>35</ele>
        <time>2018-05-31T13:40:29Z</time>
      </trkpt>
      <trkpt lat="46.4754" lon="-1.54648">
        <ele>35</ele>
        <time>2018-05-31T13:40:39Z</time>
      </trkpt>
      <trkpt lat="46.47551" lon="-1.54626">
        <ele>35</ele>
        <time>2018-05-31T13:40:52Z</time>
      </trkpt>
      <trkpt lat="46.4756" lon="-1.54598">
        <ele>35</ele>
        <time>2018-05-31T13:41:08Z</time>
      </trkpt>
      <trkpt lat="46.47564" lon="-1.54574">
        <ele>36</ele>
        <time>2018-05-31T13:41:23Z</time>
      </trkpt>
      <trkpt lat="46.47574" lon="-1.5455">
        <ele>36</ele>
        <time>2018-05-31T13:41:37Z</time>
      </trkpt>
      <trkpt lat="46.47581" lon="-1.54539">
        <ele>36</ele>
        <time>2018-05-31T13:41:47Z</time>
      </trkpt>
      <trkpt lat="46.47595" lon="-1.54528">
        <ele>36</ele>
        <time>2018-05-31T13:42:03Z</time>
      </trkpt>
      <trkpt lat="46.47604" lon="-1.54524">
        <ele>36</ele>
        <time>2018-05-31T13:42:10Z</time>
      </trkpt>
      <trkpt lat="46.47608" lon="-1.54524">
        <ele>36</ele>
        <time>2018-05-31T13:42:13Z</time>
      </trkpt>
      <trkpt lat="46.47629" lon="-1.54518">
        <ele>36</ele>
        <time>2018-05-31T13:42:31Z</time>
      </trkpt>
      <trkpt lat="46.4764" lon="-1.54514">
        <ele>36</ele>
        <time>2018-05-31T13:42:41Z</time>
      </trkpt>
      <trkpt lat="46.47664" lon="-1.54508">
        <ele>36</ele>
        <time>2018-05-31T13:43:02Z</time>
      </trkpt>
      <trkpt lat="46.47706" lon="-1.54496">
        <ele>36</ele>
        <time>2018-05-31T13:43:33Z</time>
      </trkpt>
      <trkpt lat="46.47723" lon="-1.54489">
        <ele>36</ele>
        <time>2018-05-31T13:43:46Z</time>
      </trkpt>
      <trkpt lat="46.47737" lon="-1.54486">
        <ele>36</ele>
        <time>2018-05-31T13:43:56Z</time>
      </trkpt>
      <trkpt lat="46.47741" lon="-1.54484">
        <ele>36</ele>
        <time>2018-05-31T13:43:59Z</time>
      </trkpt>
      <trkpt lat="46.47769" lon="-1.5448">
        <ele>35</ele>
        <time>2018-05-31T13:44:23Z</time>
      </trkpt>
      <trkpt lat="46.47798" lon="-1.54474">
        <ele>35</ele>
        <time>2018-05-31T13:44:46Z</time>
      </trkpt>
      <trkpt lat="46.47804" lon="-1.54471">
        <ele>35</ele>
        <time>2018-05-31T13:44:51Z</time>
      </trkpt>
      <trkpt lat="46.47812" lon="-1.54472">
        <ele>35</ele>
        <time>2018-05-31T13:44:57Z</time>
      </trkpt>
      <trkpt lat="46.47821" lon="-1.54468">
        <ele>35</ele>
        <time>2018-05-31T13:45:02Z</time>
      </trkpt>
      <trkpt lat="46.47831" lon="-1.54466">
        <ele>35</ele>
        <time>2018-05-31T13:45:09Z</time>
      </trkpt>
      <trkpt lat="46.47848" lon="-1.54461">
        <ele>35</ele>
        <time>2018-05-31T13:45:22Z</time>
      </trkpt>
      <trkpt lat="46.47873" lon="-1.54456">
        <ele>36</ele>
        <time>2018-05-31T13:45:40Z</time>
      </trkpt>
      <trkpt lat="46.47877" lon="-1.54454">
        <ele>36</ele>
        <time>2018-05-31T13:45:43Z</time>
      </trkpt>
      <trkpt lat="46.47917" lon="-1.54444">
        <ele>36</ele>
        <time>2018-05-31T13:46:13Z</time>
      </trkpt>
      <trkpt lat="46.47928" lon="-1.54439">
        <ele>36</ele>
        <time>2018-05-31T13:46:21Z</time>
      </trkpt>
      <trkpt lat="46.47939" lon="-1.54432">
        <ele>36</ele>
        <time>2018-05-31T13:46:29Z</time>
      </trkpt>
      <trkpt lat="46.47955" lon="-1.54429">
        <ele>36</ele>
        <time>2018-05-31T13:46:41Z</time>
      </trkpt>
      <trkpt lat="46.47968" lon="-1.54424">
        <ele>36</ele>
        <time>2018-05-31T13:46:51Z</time>
      </trkpt>
      <trkpt lat="46.47991" lon="-1.54412">
        <ele>36</ele>
        <time>2018-05-31T13:47:07Z</time>
      </trkpt>
      <trkpt lat="46.48001" lon="-1.54409">
        <ele>35</ele>
        <time>2018-05-31T13:47:14Z</time>
      </trkpt>
      <trkpt lat="46.48033" lon="-1.54395">
        <ele>35</ele>
        <time>2018-05-31T13:47:40Z</time>
      </trkpt>
      <trkpt lat="46.48047" lon="-1.54386">
        <ele>35</ele>
        <time>2018-05-31T13:47:53Z</time>
      </trkpt>
      <trkpt lat="46.4809" lon="-1.54363">
        <ele>34</ele>
        <time>2018-05-31T13:48:26Z</time>
      </trkpt>
      <trkpt lat="46.48107" lon="-1.54357">
        <ele>34</ele>
        <time>2018-05-31T13:48:38Z</time>
      </trkpt>
      <trkpt lat="46.48121" lon="-1.54347">
        <ele>34</ele>
        <time>2018-05-31T13:48:50Z</time>
      </trkpt>
      <trkpt lat="46.48137" lon="-1.54342">
        <ele>35</ele>
        <time>2018-05-31T13:49:03Z</time>
      </trkpt>
      <trkpt lat="46.48148" lon="-1.54334">
        <ele>35</ele>
        <time>2018-05-31T13:49:13Z</time>
      </trkpt>
      <trkpt lat="46.48156" lon="-1.54327">
        <ele>35</ele>
        <time>2018-05-31T13:49:20Z</time>
      </trkpt>
      <trkpt lat="46.48173" lon="-1.54322">
        <ele>35</ele>
        <time>2018-05-31T13:49:33Z</time>
      </trkpt>
      <trkpt lat="46.48188" lon="-1.54315">
        <ele>36</ele>
        <time>2018-05-31T13:49:46Z</time>
      </trkpt>
      <trkpt lat="46.48203" lon="-1.54312">
        <ele>36</ele>
        <time>2018-05-31T13:49:58Z</time>
      </trkpt>
      <trkpt lat="46.48209" lon="-1.54309">
        <ele>36</ele>
        <time>2018-05-31T13:50:03Z</time>
      </trkpt>
      <trkpt lat="46.48213" lon="-1.5431">
        <ele>36</ele>
        <time>2018-05-31T13:50:06Z</time>
      </trkpt>
      <trkpt lat="46.48226" lon="-1.54306">
        <ele>36</ele>
        <time>2018-05-31T13:50:16Z</time>
      </trkpt>
      <trkpt lat="46.4826" lon="-1.54299">
        <ele>37</ele>
        <time>2018-05-31T13:50:44Z</time>
      </trkpt>
      <trkpt lat="46.48292" lon="-1.54296">
        <ele>38</ele>
        <time>2018-05-31T13:51:10Z</time>
      </trkpt>
      <trkpt lat="46.48298" lon="-1.54294">
        <ele>38</ele>
        <time>2018-05-31T13:51:15Z</time>
      </trkpt>
      <trkpt lat="46.48315" lon="-1.54285">
        <ele>38</ele>
        <time>2018-05-31T13:51:28Z</time>
      </trkpt>
      <trkpt lat="46.4833" lon="-1.54273">
        <ele>39</ele>
        <time>2018-05-31T13:51:38Z</time>
      </trkpt>
      <trkpt lat="46.48341" lon="-1.54262">
        <ele>40</ele>
        <time>2018-05-31T13:51:46Z</time>
      </trkpt>
      <trkpt lat="46.48358" lon="-1.54248">
        <ele>40</ele>
        <time>2018-05-31T13:52:00Z</time>
      </trkpt>
      <trkpt lat="46.48383" lon="-1.5422">
        <ele>41</ele>
        <time>2018-05-31T13:52:23Z</time>
      </trkpt>
      <trkpt lat="46.48398" lon="-1.5421">
        <ele>41</ele>
        <time>2018-05-31T13:52:34Z</time>
      </trkpt>
      <trkpt lat="46.48412" lon="-1.54202">
        <ele>41</ele>
        <time>2018-05-31T13:52:45Z</time>
      </trkpt>
      <trkpt lat="46.4843" lon="-1.54187">
        <ele>41</ele>
        <time>2018-05-31T13:53:01Z</time>
      </trkpt>
      <trkpt lat="46.48447" lon="-1.54177">
        <ele>42</ele>
        <time>2018-05-31T13:53:14Z</time>
      </trkpt>
      <trkpt lat="46.48462" lon="-1.54172">
        <ele>42</ele>
        <time>2018-05-31T13:53:27Z</time>
      </trkpt>
      <trkpt lat="46.48471" lon="-1.54164">
        <ele>42</ele>
        <time>2018-05-31T13:53:42Z</time>
      </trkpt>
      <trkpt lat="46.48477" lon="-1.54165">
        <ele>42</ele>
        <time>2018-05-31T13:53:50Z</time>
      </trkpt>
      <trkpt lat="46.48486" lon="-1.54163">
        <ele>43</ele>
        <time>2018-05-31T13:53:58Z</time>
      </trkpt>
      <trkpt lat="46.485" lon="-1.54159">
        <ele>43</ele>
        <time>2018-05-31T13:54:11Z</time>
      </trkpt>
      <trkpt lat="46.48506" lon="-1.5416">
        <ele>43</ele>
        <time>2018-05-31T13:54:16Z</time>
      </trkpt>
      <trkpt lat="46.48528" lon="-1.54167">
        <ele>43</ele>
        <time>2018-05-31T13:54:37Z</time>
      </trkpt>
      <trkpt lat="46.48541" lon="-1.5417">
        <ele>43</ele>
        <time>2018-05-31T13:54:48Z</time>
      </trkpt>
      <trkpt lat="46.48569" lon="-1.54174">
        <ele>43</ele>
        <time>2018-05-31T13:55:09Z</time>
      </trkpt>
      <trkpt lat="46.48587" lon="-1.54174">
        <ele>43</ele>
        <time>2018-05-31T13:55:23Z</time>
      </trkpt>
      <trkpt lat="46.48599" lon="-1.54174">
        <ele>43</ele>
        <time>2018-05-31T13:55:34Z</time>
      </trkpt>
      <trkpt lat="46.4862" lon="-1.54171">
        <ele>44</ele>
        <time>2018-05-31T13:55:50Z</time>
      </trkpt>
      <trkpt lat="46.48622" lon="-1.54172">
        <ele>44</ele>
        <time>2018-05-31T13:55:52Z</time>
      </trkpt>
      <trkpt lat="46.48649" lon="-1.54171">
        <ele>44</ele>
        <time>2018-05-31T13:56:16Z</time>
      </trkpt>
      <trkpt lat="46.48668" lon="-1.54166">
        <ele>45</ele>
        <time>2018-05-31T13:56:29Z</time>
      </trkpt>
      <trkpt lat="46.4868" lon="-1.54161">
        <ele>45</ele>
        <time>2018-05-31T13:56:39Z</time>
      </trkpt>
      <trkpt lat="46.48683" lon="-1.5416">
        <ele>45</ele>
        <time>2018-05-31T13:56:42Z</time>
      </trkpt>
      <trkpt lat="46.48703" lon="-1.54151">
        <ele>45</ele>
        <time>2018-05-31T13:56:58Z</time>
      </trkpt>
      <trkpt lat="46.4873" lon="-1.54139">
        <ele>45</ele>
        <time>2018-05-31T13:57:18Z</time>
      </trkpt>
      <trkpt lat="46.48736" lon="-1.54135">
        <ele>45</ele>
        <time>2018-05-31T13:57:23Z</time>
      </trkpt>
      <trkpt lat="46.48744" lon="-1.5413">
        <ele>45</ele>
        <time>2018-05-31T13:57:31Z</time>
      </trkpt>
      <trkpt lat="46.48761" lon="-1.54117">
        <ele>46</ele>
        <time>2018-05-31T13:57:46Z</time>
      </trkpt>
      <trkpt lat="46.4879" lon="-1.54099">
        <ele>47</ele>
        <time>2018-05-31T13:58:11Z</time>
      </trkpt>
      <trkpt lat="46.48803" lon="-1.54092">
        <ele>47</ele>
        <time>2018-05-31T13:58:21Z</time>
      </trkpt>
      <trkpt lat="46.48818" lon="-1.54081">
        <ele>48</ele>
        <time>2018-05-31T13:58:34Z</time>
      </trkpt>
      <trkpt lat="46.48836" lon="-1.5407">
        <ele>48</ele>
        <time>2018-05-31T13:58:50Z</time>
      </trkpt>
      <trkpt lat="46.48857" lon="-1.54056">
        <ele>49</ele>
        <time>2018-05-31T13:59:07Z</time>
      </trkpt>
      <trkpt lat="46.48865" lon="-1.54049">
        <ele>49</ele>
        <time>2018-05-31T13:59:15Z</time>
      </trkpt>
      <trkpt lat="46.4889" lon="-1.54035">
        <ele>49</ele>
        <time>2018-05-31T13:59:38Z</time>
      </trkpt>
      <trkpt lat="46.48896" lon="-1.54034">
        <ele>49</ele>
        <time>2018-05-31T13:59:43Z</time>
      </trkpt>
      <trkpt lat="46.48906" lon="-1.54026">
        <ele>49</ele>
        <time>2018-05-31T13:59:54Z</time>
      </trkpt>
      <trkpt lat="46.48927" lon="-1.54014">
        <ele>50</ele>
        <time>2018-05-31T14:00:14Z</time>
      </trkpt>
      <trkpt lat="46.4893" lon="-1.54011">
        <ele>50</ele>
        <time>2018-05-31T14:00:17Z</time>
      </trkpt>
      <trkpt lat="46.48941" lon="-1.54001">
        <ele>50</ele>
        <time>2018-05-31T14:00:27Z</time>
      </trkpt>
      <trkpt lat="46.48942" lon="-1.53996">
        <ele>51</ele>
        <time>2018-05-31T14:00:35Z</time>
      </trkpt>
      <trkpt lat="46.48945" lon="-1.53993">
        <ele>51</ele>
        <time>2018-05-31T14:00:43Z</time>
      </trkpt>
      <trkpt lat="46.48946" lon="-1.53989">
        <ele>51</ele>
        <time>2018-05-31T14:00:56Z</time>
      </trkpt>
      <trkpt lat="46.48943" lon="-1.53985">
        <ele>51</ele>
        <time>2018-05-31T14:01:01Z</time>
      </trkpt>
      <trkpt lat="46.48943" lon="-1.5397">
        <ele>51</ele>
        <time>2018-05-31T14:01:14Z</time>
      </trkpt>
      <trkpt lat="46.48938" lon="-1.53952">
        <ele>52</ele>
        <time>2018-05-31T14:01:24Z</time>
      </trkpt>
      <trkpt lat="46.48931" lon="-1.53907">
        <ele>53</ele>
        <time>2018-05-31T14:01:51Z</time>
      </trkpt>
      <trkpt lat="46.48928" lon="-1.53882">
        <ele>53</ele>
        <time>2018-05-31T14:02:06Z</time>
      </trkpt>
      <trkpt lat="46.48928" lon="-1.53859">
        <ele>54</ele>
        <time>2018-05-31T14:02:19Z</time>
      </trkpt>
      <trkpt lat="46.48929" lon="-1.53839">
        <ele>54</ele>
        <time>2018-05-31T14:02:30Z</time>
      </trkpt>
      <trkpt lat="46.48933" lon="-1.53818">
        <ele>55</ele>
        <time>2018-05-31T14:02:40Z</time>
      </trkpt>
      <trkpt lat="46.48931" lon="-1.53784">
        <ele>55</ele>
        <time>2018-05-31T14:02:59Z</time>
      </trkpt>
      <trkpt lat="46.48926" lon="-1.53748">
        <ele>56</ele>
        <time>2018-05-31T14:03:17Z</time>
      </trkpt>
      <trkpt lat="46.48925" lon="-1.53719">
        <ele>56</ele>
        <time>2018-05-31T14:03:32Z</time>
      </trkpt>
      <trkpt lat="46.48925" lon="-1.53713">
        <ele>56</ele>
        <time>2018-05-31T14:03:35Z</time>
      </trkpt>
      <trkpt lat="46.48924" lon="-1.537">
        <ele>56</ele>
        <time>2018-05-31T14:03:42Z</time>
      </trkpt>
      <trkpt lat="46.48922" lon="-1.53669">
        <ele>57</ele>
        <time>2018-05-31T14:03:58Z</time>
      </trkpt>
      <trkpt lat="46.4892" lon="-1.53653">
        <ele>57</ele>
        <time>2018-05-31T14:04:08Z</time>
      </trkpt>
      <trkpt lat="46.48914" lon="-1.53622">
        <ele>56</ele>
        <time>2018-05-31T14:04:26Z</time>
      </trkpt>
      <trkpt lat="46.48904" lon="-1.53602">
        <ele>56</ele>
        <time>2018-05-31T14:04:39Z</time>
      </trkpt>
      <trkpt lat="46.48899" lon="-1.5359">
        <ele>56</ele>
        <time>2018-05-31T14:04:46Z</time>
      </trkpt>
      <trkpt lat="46.489" lon="-1.53574">
        <ele>56</ele>
        <time>2018-05-31T14:04:56Z</time>
      </trkpt>
      <trkpt lat="46.48908" lon="-1.53559">
        <ele>56</ele>
        <time>2018-05-31T14:05:17Z</time>
      </trkpt>
      <trkpt lat="46.48913" lon="-1.53551">
        <ele>55</ele>
        <time>2018-05-31T14:05:25Z</time>
      </trkpt>
      <trkpt lat="46.4892" lon="-1.53545">
        <ele>56</ele>
        <time>2018-05-31T14:05:30Z</time>
      </trkpt>
      <trkpt lat="46.48939" lon="-1.5352">
        <ele>56</ele>
        <time>2018-05-31T14:05:50Z</time>
      </trkpt>
      <trkpt lat="46.48952" lon="-1.53505">
        <ele>56</ele>
        <time>2018-05-31T14:06:03Z</time>
      </trkpt>
      <trkpt lat="46.48972" lon="-1.53493">
        <ele>55</ele>
        <time>2018-05-31T14:06:21Z</time>
      </trkpt>
      <trkpt lat="46.48978" lon="-1.53487">
        <ele>55</ele>
        <time>2018-05-31T14:06:26Z</time>
      </trkpt>
      <trkpt lat="46.48985" lon="-1.53481">
        <ele>55</ele>
        <time>2018-05-31T14:06:41Z</time>
      </trkpt>
      <trkpt lat="46.48995" lon="-1.53469">
        <ele>54</ele>
        <time>2018-05-31T14:06:51Z</time>
      </trkpt>
      <trkpt lat="46.48999" lon="-1.53456">
        <ele>54</ele>
        <time>2018-05-31T14:06:59Z</time>
      </trkpt>
      <trkpt lat="46.49" lon="-1.53441">
        <ele>54</ele>
        <time>2018-05-31T14:07:06Z</time>
      </trkpt>
      <trkpt lat="46.48998" lon="-1.53436">
        <ele>54</ele>
        <time>2018-05-31T14:07:09Z</time>
      </trkpt>
      <trkpt lat="46.48994" lon="-1.53401">
        <ele>52</ele>
        <time>2018-05-31T14:07:29Z</time>
      </trkpt>
      <trkpt lat="46.48992" lon="-1.53352">
        <ele>50</ele>
        <time>2018-05-31T14:07:52Z</time>
      </trkpt>
      <trkpt lat="46.48993" lon="-1.53344">
        <ele>50</ele>
        <time>2018-05-31T14:07:54Z</time>
      </trkpt>
      <trkpt lat="46.48994" lon="-1.53338">
        <ele>50</ele>
        <time>2018-05-31T14:07:57Z</time>
      </trkpt>
      <trkpt lat="46.49" lon="-1.53327">
        <ele>50</ele>
        <time>2018-05-31T14:08:04Z</time>
      </trkpt>
      <trkpt lat="46.49013" lon="-1.53294">
        <ele>50</ele>
        <time>2018-05-31T14:08:24Z</time>
      </trkpt>
      <trkpt lat="46.49024" lon="-1.53274">
        <ele>50</ele>
        <time>2018-05-31T14:08:37Z</time>
      </trkpt>
      <trkpt lat="46.49037" lon="-1.53258">
        <ele>50</ele>
        <time>2018-05-31T14:08:50Z</time>
      </trkpt>
      <trkpt lat="46.49047" lon="-1.53241">
        <ele>49</ele>
        <time>2018-05-31T14:09:00Z</time>
      </trkpt>
      <trkpt lat="46.49056" lon="-1.53229">
        <ele>49</ele>
        <time>2018-05-31T14:09:10Z</time>
      </trkpt>
      <trkpt lat="46.49065" lon="-1.53215">
        <ele>49</ele>
        <time>2018-05-31T14:09:20Z</time>
      </trkpt>
      <trkpt lat="46.49072" lon="-1.53204">
        <ele>49</ele>
        <time>2018-05-31T14:09:28Z</time>
      </trkpt>
      <trkpt lat="46.49094" lon="-1.5317">
        <ele>50</ele>
        <time>2018-05-31T14:09:48Z</time>
      </trkpt>
      <trkpt lat="46.49098" lon="-1.53166">
        <ele>50</ele>
        <time>2018-05-31T14:09:53Z</time>
      </trkpt>
      <trkpt lat="46.49102" lon="-1.53158">
        <ele>50</ele>
        <time>2018-05-31T14:10:03Z</time>
      </trkpt>
      <trkpt lat="46.49102" lon="-1.53157">
        <ele>50</ele>
        <time>2018-05-31T14:10:11Z</time>
      </trkpt>
      <trkpt lat="46.49103" lon="-1.53155">
        <ele>50</ele>
        <time>2018-05-31T14:10:24Z</time>
      </trkpt>
      <trkpt lat="46.49102" lon="-1.53154">
        <ele>50</ele>
        <time>2018-05-31T14:10:36Z</time>
      </trkpt>
      <trkpt lat="46.49101" lon="-1.53154">
        <ele>50</ele>
        <time>2018-05-31T14:10:44Z</time>
      </trkpt>
      <trkpt lat="46.491" lon="-1.53151">
        <ele>50</ele>
        <time>2018-05-31T14:11:04Z</time>
      </trkpt>
      <trkpt lat="46.49099" lon="-1.53151">
        <ele>50</ele>
        <time>2018-05-31T14:11:09Z</time>
      </trkpt>
      <trkpt lat="46.49099" lon="-1.53151">
        <ele>50</ele>
        <time>2018-05-31T14:11:29Z</time>
      </trkpt>
      <trkpt lat="46.49098" lon="-1.53151">
        <ele>50</ele>
        <time>2018-05-31T14:11:52Z</time>
      </trkpt>
      <trkpt lat="46.49099" lon="-1.53152">
        <ele>50</ele>
        <time>2018-05-31T14:12:10Z</time>
      </trkpt>
      <trkpt lat="46.49097" lon="-1.53153">
        <ele>50</ele>
        <time>2018-05-31T14:12:35Z</time>
      </trkpt>
      <trkpt lat="46.49099" lon="-1.53154">
        <ele>50</ele>
        <time>2018-05-31T14:12:46Z</time>
      </trkpt>
      <trkpt lat="46.49099" lon="-1.53155">
        <ele>50</ele>
        <time>2018-05-31T14:12:56Z</time>
      </trkpt>
      <trkpt lat="46.49097" lon="-1.53158">
        <ele>50</ele>
        <time>2018-05-31T14:13:08Z</time>
      </trkpt>
      <trkpt lat="46.49098" lon="-1.53161">
        <ele>50</ele>
        <time>2018-05-31T14:13:13Z</time>
      </trkpt>
      <trkpt lat="46.49099" lon="-1.53163">
        <ele>50</ele>
        <time>2018-05-31T14:13:23Z</time>
      </trkpt>
      <trkpt lat="46.49099" lon="-1.53159">
        <ele>50</ele>
        <time>2018-05-31T14:13:44Z</time>
      </trkpt>
      <trkpt lat="46.49099" lon="-1.53158">
        <ele>50</ele>
        <time>2018-05-31T14:13:49Z</time>
      </trkpt>
      <trkpt lat="46.49096" lon="-1.53157">
        <ele>50</ele>
        <time>2018-05-31T14:14:09Z</time>
      </trkpt>
      <trkpt lat="46.49096" lon="-1.53156">
        <ele>50</ele>
        <time>2018-05-31T14:14:14Z</time>
      </trkpt>
      <trkpt lat="46.49097" lon="-1.53157">
        <ele>50</ele>
        <time>2018-05-31T14:14:24Z</time>
      </trkpt>
      <trkpt lat="46.49101" lon="-1.53157">
        <ele>50</ele>
        <time>2018-05-31T14:14:37Z</time>
      </trkpt>
      <trkpt lat="46.49101" lon="-1.53157">
        <ele>50</ele>
        <time>2018-05-31T14:14:52Z</time>
      </trkpt>
      <trkpt lat="46.49101" lon="-1.53157">
        <ele>50</ele>
        <time>2018-05-31T14:15:02Z</time>
      </trkpt>
      <trkpt lat="46.491" lon="-1.53156">
        <ele>50</ele>
        <time>2018-05-31T14:15:14Z</time>
      </trkpt>
      <trkpt lat="46.491" lon="-1.53155">
        <ele>50</ele>
        <time>2018-05-31T14:15:27Z</time>
      </trkpt>
      <trkpt lat="46.49101" lon="-1.53155">
        <ele>50</ele>
        <time>2018-05-31T14:15:40Z</time>
      </trkpt>
      <trkpt lat="46.491" lon="-1.53154">
        <ele>50</ele>
        <time>2018-05-31T14:16:02Z</time>
      </trkpt>
      <trkpt lat="46.49099" lon="-1.53154">
        <ele>50</ele>
        <time>2018-05-31T14:16:13Z</time>
      </trkpt>
      <trkpt lat="46.49098" lon="-1.53153">
        <ele>50</ele>
        <time>2018-05-31T14:16:18Z</time>
      </trkpt>
      <trkpt lat="46.49098" lon="-1.53153">
        <ele>50</ele>
        <time>2018-05-31T14:16:31Z</time>
      </trkpt>
      <trkpt lat="46.49099" lon="-1.53154">
        <ele>50</ele>
        <time>2018-05-31T14:16:53Z</time>
      </trkpt>
      <trkpt lat="46.49098" lon="-1.53155">
        <ele>50</ele>
        <time>2018-05-31T14:17:06Z</time>
      </trkpt>
      <trkpt lat="46.49097" lon="-1.53157">
        <ele>50</ele>
        <time>2018-05-31T14:17:23Z</time>
      </trkpt>
      <trkpt lat="46.49096" lon="-1.53157">
        <ele>50</ele>
        <time>2018-05-31T14:17:29Z</time>
      </trkpt>
      <trkpt lat="46.49097" lon="-1.53157">
        <ele>50</ele>
        <time>2018-05-31T14:17:49Z</time>
      </trkpt>
      <trkpt lat="46.49098" lon="-1.53159">
        <ele>50</ele>
        <time>2018-05-31T14:17:56Z</time>
      </trkpt>
      <trkpt lat="46.49099" lon="-1.53158">
        <ele>50</ele>
        <time>2018-05-31T14:18:06Z</time>
      </trkpt>
      <trkpt lat="46.491" lon="-1.53157">
        <ele>50</ele>
        <time>2018-05-31T14:18:14Z</time>
      </trkpt>
      <trkpt lat="46.49099" lon="-1.53156">
        <ele>50</ele>
        <time>2018-05-31T14:18:24Z</time>
      </trkpt>
      <trkpt lat="46.491" lon="-1.53156">
        <ele>50</ele>
        <time>2018-05-31T14:18:32Z</time>
      </trkpt>
      <trkpt lat="46.49097" lon="-1.53159">
        <ele>50</ele>
        <time>2018-05-31T14:19:05Z</time>
      </trkpt>
      <trkpt lat="46.49097" lon="-1.53158">
        <ele>50</ele>
        <time>2018-05-31T14:19:10Z</time>
      </trkpt>
      <trkpt lat="46.49098" lon="-1.53157">
        <ele>50</ele>
        <time>2018-05-31T14:19:37Z</time>
      </trkpt>
      <trkpt lat="46.49099" lon="-1.53158">
        <ele>50</ele>
        <time>2018-05-31T14:19:55Z</time>
      </trkpt>
      <trkpt lat="46.49099" lon="-1.53161">
        <ele>50</ele>
        <time>2018-05-31T14:20:13Z</time>
      </trkpt>
      <trkpt lat="46.49094" lon="-1.53165">
        <ele>50</ele>
        <time>2018-05-31T14:20:18Z</time>
      </trkpt>
      <trkpt lat="46.49091" lon="-1.53174">
        <ele>50</ele>
        <time>2018-05-31T14:20:26Z</time>
      </trkpt>
      <trkpt lat="46.4909" lon="-1.53178">
        <ele>50</ele>
        <time>2018-05-31T14:20:51Z</time>
      </trkpt>
      <trkpt lat="46.4909" lon="-1.5318">
        <ele>50</ele>
        <time>2018-05-31T14:21:04Z</time>
      </trkpt>
      <trkpt lat="46.49092" lon="-1.5318">
        <ele>50</ele>
        <time>2018-05-31T14:21:09Z</time>
      </trkpt>
      <trkpt lat="46.49093" lon="-1.53172">
        <ele>50</ele>
        <time>2018-05-31T14:21:14Z</time>
      </trkpt>
      <trkpt lat="46.49099" lon="-1.5316">
        <ele>50</ele>
        <time>2018-05-31T14:21:27Z</time>
      </trkpt>
      <trkpt lat="46.49109" lon="-1.53147">
        <ele>50</ele>
        <time>2018-05-31T14:21:40Z</time>
      </trkpt>
      <trkpt lat="46.49128" lon="-1.53132">
        <ele>50</ele>
        <time>2018-05-31T14:21:56Z</time>
      </trkpt>
      <trkpt lat="46.49147" lon="-1.53119">
        <ele>50</ele>
        <time>2018-05-31T14:22:14Z</time>
      </trkpt>
      <trkpt lat="46.49153" lon="-1.53112">
        <ele>50</ele>
        <time>2018-05-31T14:22:19Z</time>
      </trkpt>
      <trkpt lat="46.49158" lon="-1.53106">
        <ele>50</ele>
        <time>2018-05-31T14:22:24Z</time>
      </trkpt>
      <trkpt lat="46.49164" lon="-1.53093">
        <ele>50</ele>
        <time>2018-05-31T14:22:32Z</time>
      </trkpt>
      <trkpt lat="46.49175" lon="-1.53071">
        <ele>50</ele>
        <time>2018-05-31T14:22:45Z</time>
      </trkpt>
      <trkpt lat="46.49177" lon="-1.53062">
        <ele>51</ele>
        <time>2018-05-31T14:22:50Z</time>
      </trkpt>
      <trkpt lat="46.49182" lon="-1.53044">
        <ele>51</ele>
        <time>2018-05-31T14:23:00Z</time>
      </trkpt>
      <trkpt lat="46.49194" lon="-1.53024">
        <ele>51</ele>
        <time>2018-05-31T14:23:13Z</time>
      </trkpt>
      <trkpt lat="46.49212" lon="-1.53">
        <ele>51</ele>
        <time>2018-05-31T14:23:36Z</time>
      </trkpt>
      <trkpt lat="46.49226" lon="-1.52988">
        <ele>52</ele>
        <time>2018-05-31T14:23:48Z</time>
      </trkpt>
      <trkpt lat="46.49231" lon="-1.52978">
        <ele>52</ele>
        <time>2018-05-31T14:23:56Z</time>
      </trkpt>
      <trkpt lat="46.49249" lon="-1.52953">
        <ele>52</ele>
        <time>2018-05-31T14:24:19Z</time>
      </trkpt>
      <trkpt lat="46.49255" lon="-1.52948">
        <ele>52</ele>
        <time>2018-05-31T14:24:29Z</time>
      </trkpt>
      <trkpt lat="46.49258" lon="-1.52944">
        <ele>52</ele>
        <time>2018-05-31T14:24:42Z</time>
      </trkpt>
      <trkpt lat="46.49263" lon="-1.52943">
        <ele>52</ele>
        <time>2018-05-31T14:24:55Z</time>
      </trkpt>
      <trkpt lat="46.49263" lon="-1.52942">
        <ele>52</ele>
        <time>2018-05-31T14:24:57Z</time>
      </trkpt>
      <trkpt lat="46.49258" lon="-1.52944">
        <ele>52</ele>
        <time>2018-05-31T14:25:18Z</time>
      </trkpt>
      <trkpt lat="46.49254" lon="-1.52947">
        <ele>52</ele>
        <time>2018-05-31T14:25:23Z</time>
      </trkpt>
      <trkpt lat="46.49251" lon="-1.52953">
        <ele>52</ele>
        <time>2018-05-31T14:25:30Z</time>
      </trkpt>
      <trkpt lat="46.4924" lon="-1.52964">
        <ele>52</ele>
        <time>2018-05-31T14:25:43Z</time>
      </trkpt>
      <trkpt lat="46.49211" lon="-1.52987">
        <ele>52</ele>
        <time>2018-05-31T14:26:06Z</time>
      </trkpt>
      <trkpt lat="46.49202" lon="-1.52997">
        <ele>52</ele>
        <time>2018-05-31T14:26:14Z</time>
      </trkpt>
      <trkpt lat="46.49188" lon="-1.5302">
        <ele>51</ele>
        <time>2018-05-31T14:26:31Z</time>
      </trkpt>
      <trkpt lat="46.49181" lon="-1.53041">
        <ele>51</ele>
        <time>2018-05-31T14:26:44Z</time>
      </trkpt>
      <trkpt lat="46.49175" lon="-1.53058">
        <ele>51</ele>
        <time>2018-05-31T14:26:57Z</time>
      </trkpt>
      <trkpt lat="46.49167" lon="-1.53068">
        <ele>51</ele>
        <time>2018-05-31T14:27:02Z</time>
      </trkpt>
      <trkpt lat="46.49153" lon="-1.53095">
        <ele>50</ele>
        <time>2018-05-31T14:27:22Z</time>
      </trkpt>
      <trkpt lat="46.49149" lon="-1.53096">
        <ele>50</ele>
        <time>2018-05-31T14:27:25Z</time>
      </trkpt>
      <trkpt lat="46.49142" lon="-1.53107">
        <ele>50</ele>
        <time>2018-05-31T14:27:35Z</time>
      </trkpt>
      <trkpt lat="46.49133" lon="-1.53113">
        <ele>50</ele>
        <time>2018-05-31T14:27:42Z</time>
      </trkpt>
      <trkpt lat="46.49099" lon="-1.5315">
        <ele>50</ele>
        <time>2018-05-31T14:28:16Z</time>
      </trkpt>
      <trkpt lat="46.49097" lon="-1.53151">
        <ele>50</ele>
        <time>2018-05-31T14:28:18Z</time>
      </trkpt>
      <trkpt lat="46.49075" lon="-1.53132">
        <ele>50</ele>
        <time>2018-05-31T14:28:44Z</time>
      </trkpt>
      <trkpt lat="46.49069" lon="-1.53129">
        <ele>50</ele>
        <time>2018-05-31T14:28:49Z</time>
      </trkpt>
      <trkpt lat="46.4905" lon="-1.53124">
        <ele>50</ele>
        <time>2018-05-31T14:29:07Z</time>
      </trkpt>
      <trkpt lat="46.49035" lon="-1.53112">
        <ele>50</ele>
        <time>2018-05-31T14:29:20Z</time>
      </trkpt>
      <trkpt lat="46.49021" lon="-1.53095">
        <ele>50</ele>
        <time>2018-05-31T14:29:33Z</time>
      </trkpt>
      <trkpt lat="46.48997" lon="-1.5306">
        <ele>51</ele>
        <time>2018-05-31T14:29:56Z</time>
      </trkpt>
      <trkpt lat="46.48986" lon="-1.53039">
        <ele>51</ele>
        <time>2018-05-31T14:30:12Z</time>
      </trkpt>
      <trkpt lat="46.48977" lon="-1.53029">
        <ele>51</ele>
        <time>2018-05-31T14:30:19Z</time>
      </trkpt>
      <trkpt lat="46.48968" lon="-1.53017">
        <ele>51</ele>
        <time>2018-05-31T14:30:32Z</time>
      </trkpt>
      <trkpt lat="46.48965" lon="-1.53009">
        <ele>51</ele>
        <time>2018-05-31T14:30:37Z</time>
      </trkpt>
      <trkpt lat="46.4896" lon="-1.52988">
        <ele>52</ele>
        <time>2018-05-31T14:30:50Z</time>
      </trkpt>
      <trkpt lat="46.48962" lon="-1.52974">
        <ele>53</ele>
        <time>2018-05-31T14:31:00Z</time>
      </trkpt>
      <trkpt lat="46.4897" lon="-1.52954">
        <ele>53</ele>
        <time>2018-05-31T14:31:13Z</time>
      </trkpt>
      <trkpt lat="46.48985" lon="-1.5291">
        <ele>53</ele>
        <time>2018-05-31T14:31:39Z</time>
      </trkpt>
      <trkpt lat="46.48987" lon="-1.52889">
        <ele>53</ele>
        <time>2018-05-31T14:31:51Z</time>
      </trkpt>
      <trkpt lat="46.48992" lon="-1.52879">
        <ele>53</ele>
        <time>2018-05-31T14:31:56Z</time>
      </trkpt>
      <trkpt lat="46.48995" lon="-1.52841">
        <ele>53</ele>
        <time>2018-05-31T14:32:17Z</time>
      </trkpt>
      <trkpt lat="46.49004" lon="-1.52822">
        <ele>53</ele>
        <time>2018-05-31T14:32:29Z</time>
      </trkpt>
      <trkpt lat="46.49018" lon="-1.52806">
        <ele>52</ele>
        <time>2018-05-31T14:32:45Z</time>
      </trkpt>
      <trkpt lat="46.49028" lon="-1.52788">
        <ele>52</ele>
        <time>2018-05-31T14:32:57Z</time>
      </trkpt>
      <trkpt lat="46.49035" lon="-1.52772">
        <ele>52</ele>
        <time>2018-05-31T14:33:07Z</time>
      </trkpt>
      <trkpt lat="46.49035" lon="-1.52756">
        <ele>52</ele>
        <time>2018-05-31T14:33:15Z</time>
      </trkpt>
      <trkpt lat="46.49034" lon="-1.52752">
        <ele>52</ele>
        <time>2018-05-31T14:33:18Z</time>
      </trkpt>
      <trkpt lat="46.49027" lon="-1.52743">
        <ele>52</ele>
        <time>2018-05-31T14:33:23Z</time>
      </trkpt>
      <trkpt lat="46.49016" lon="-1.52721">
        <ele>52</ele>
        <time>2018-05-31T14:33:35Z</time>
      </trkpt>
      <trkpt lat="46.49007" lon="-1.52699">
        <ele>52</ele>
        <time>2018-05-31T14:33:48Z</time>
      </trkpt>
      <trkpt lat="46.49013" lon="-1.52687">
        <ele>52</ele>
        <time>2018-05-31T14:33:58Z</time>
      </trkpt>
      <trkpt lat="46.49019" lon="-1.5268">
        <ele>52</ele>
        <time>2018-05-31T14:34:05Z</time>
      </trkpt>
      <trkpt lat="46.49035" lon="-1.52669">
        <ele>52</ele>
        <time>2018-05-31T14:34:18Z</time>
      </trkpt>
      <trkpt lat="46.49038" lon="-1.52666">
        <ele>52</ele>
        <time>2018-05-31T14:34:23Z</time>
      </trkpt>
      <trkpt lat="46.49048" lon="-1.52657">
        <ele>52</ele>
        <time>2018-05-31T14:34:36Z</time>
      </trkpt>
      <trkpt lat="46.49072" lon="-1.52641">
        <ele>52</ele>
        <time>2018-05-31T14:34:56Z</time>
      </trkpt>
      <trkpt lat="46.4908" lon="-1.52638">
        <ele>52</ele>
        <time>2018-05-31T14:35:01Z</time>
      </trkpt>
      <trkpt lat="46.49095" lon="-1.52625">
        <ele>53</ele>
        <time>2018-05-31T14:35:16Z</time>
      </trkpt>
      <trkpt lat="46.4911" lon="-1.52617">
        <ele>53</ele>
        <time>2018-05-31T14:35:26Z</time>
      </trkpt>
      <trkpt lat="46.49125" lon="-1.52611">
        <ele>53</ele>
        <time>2018-05-31T14:35:36Z</time>
      </trkpt>
      <trkpt lat="46.49139" lon="-1.52603">
        <ele>53</ele>
        <time>2018-05-31T14:35:49Z</time>
      </trkpt>
      <trkpt lat="46.49151" lon="-1.52598">
        <ele>53</ele>
        <time>2018-05-31T14:35:59Z</time>
      </trkpt>
      <trkpt lat="46.49161" lon="-1.52596">
        <ele>54</ele>
        <time>2018-05-31T14:36:06Z</time>
      </trkpt>
      <trkpt lat="46.49185" lon="-1.52585">
        <ele>54</ele>
        <time>2018-05-31T14:36:24Z</time>
      </trkpt>
      <trkpt lat="46.49197" lon="-1.52578">
        <ele>55</ele>
        <time>2018-05-31T14:36:34Z</time>
      </trkpt>
      <trkpt lat="46.49213" lon="-1.5257">
        <ele>55</ele>
        <time>2018-05-31T14:36:47Z</time>
      </trkpt>
      <trkpt lat="46.49218" lon="-1.52568">
        <ele>55</ele>
        <time>2018-05-31T14:36:52Z</time>
      </trkpt>
      <trkpt lat="46.49235" lon="-1.5256">
        <ele>55</ele>
        <time>2018-05-31T14:37:07Z</time>
      </trkpt>
      <trkpt lat="46.49259" lon="-1.52548">
        <ele>57</ele>
        <time>2018-05-31T14:37:24Z</time>
      </trkpt>
      <trkpt lat="46.49271" lon="-1.5254">
        <ele>57</ele>
        <time>2018-05-31T14:37:37Z</time>
      </trkpt>
      <trkpt lat="46.4928" lon="-1.52534">
        <ele>57</ele>
        <time>2018-05-31T14:37:44Z</time>
      </trkpt>
      <trkpt lat="46.493" lon="-1.52516">
        <ele>58</ele>
        <time>2018-05-31T14:38:04Z</time>
      </trkpt>
      <trkpt lat="46.49309" lon="-1.52502">
        <ele>58</ele>
        <time>2018-05-31T14:38:26Z</time>
      </trkpt>
      <trkpt lat="46.4931" lon="-1.52503">
        <ele>58</ele>
        <time>2018-05-31T14:38:29Z</time>
      </trkpt>
      <trkpt lat="46.49305" lon="-1.52489">
        <ele>59</ele>
        <time>2018-05-31T14:38:41Z</time>
      </trkpt>
      <trkpt lat="46.49296" lon="-1.52455">
        <ele>59</ele>
        <time>2018-05-31T14:38:59Z</time>
      </trkpt>
      <trkpt lat="46.49288" lon="-1.52439">
        <ele>59</ele>
        <time>2018-05-31T14:39:09Z</time>
      </trkpt>
      <trkpt lat="46.49288" lon="-1.52433">
        <ele>59</ele>
        <time>2018-05-31T14:39:21Z</time>
      </trkpt>
      <trkpt lat="46.49284" lon="-1.52427">
        <ele>59</ele>
        <time>2018-05-31T14:39:29Z</time>
      </trkpt>
      <trkpt lat="46.49271" lon="-1.52401">
        <ele>59</ele>
        <time>2018-05-31T14:39:47Z</time>
      </trkpt>
      <trkpt lat="46.49263" lon="-1.52373">
        <ele>59</ele>
        <time>2018-05-31T14:40:02Z</time>
      </trkpt>
      <trkpt lat="46.49257" lon="-1.5236">
        <ele>59</ele>
        <time>2018-05-31T14:40:12Z</time>
      </trkpt>
      <trkpt lat="46.49257" lon="-1.52352">
        <ele>58</ele>
        <time>2018-05-31T14:40:20Z</time>
      </trkpt>
      <trkpt lat="46.49266" lon="-1.52341">
        <ele>58</ele>
        <time>2018-05-31T14:40:33Z</time>
      </trkpt>
      <trkpt lat="46.49275" lon="-1.5233">
        <ele>58</ele>
        <time>2018-05-31T14:40:43Z</time>
      </trkpt>
      <trkpt lat="46.49284" lon="-1.52322">
        <ele>58</ele>
        <time>2018-05-31T14:40:51Z</time>
      </trkpt>
      <trkpt lat="46.49302" lon="-1.52301">
        <ele>58</ele>
        <time>2018-05-31T14:41:09Z</time>
      </trkpt>
      <trkpt lat="46.49309" lon="-1.52297">
        <ele>58</ele>
        <time>2018-05-31T14:41:14Z</time>
      </trkpt>
      <trkpt lat="46.49325" lon="-1.52279">
        <ele>58</ele>
        <time>2018-05-31T14:41:34Z</time>
      </trkpt>
      <trkpt lat="46.49335" lon="-1.52265">
        <ele>60</ele>
        <time>2018-05-31T14:41:47Z</time>
      </trkpt>
      <trkpt lat="46.49338" lon="-1.52254">
        <ele>60</ele>
        <time>2018-05-31T14:41:54Z</time>
      </trkpt>
      <trkpt lat="46.49354" lon="-1.52232">
        <ele>60</ele>
        <time>2018-05-31T14:42:12Z</time>
      </trkpt>
      <trkpt lat="46.49361" lon="-1.52228">
        <ele>60</ele>
        <time>2018-05-31T14:42:17Z</time>
      </trkpt>
      <trkpt lat="46.49381" lon="-1.52205">
        <ele>60</ele>
        <time>2018-05-31T14:42:32Z</time>
      </trkpt>
      <trkpt lat="46.49394" lon="-1.52187">
        <ele>60</ele>
        <time>2018-05-31T14:42:45Z</time>
      </trkpt>
      <trkpt lat="46.49416" lon="-1.52163">
        <ele>60</ele>
        <time>2018-05-31T14:43:07Z</time>
      </trkpt>
      <trkpt lat="46.49421" lon="-1.52155">
        <ele>61</ele>
        <time>2018-05-31T14:43:15Z</time>
      </trkpt>
      <trkpt lat="46.49429" lon="-1.52149">
        <ele>60</ele>
        <time>2018-05-31T14:43:22Z</time>
      </trkpt>
      <trkpt lat="46.49442" lon="-1.52142">
        <ele>60</ele>
        <time>2018-05-31T14:43:32Z</time>
      </trkpt>
      <trkpt lat="46.4946" lon="-1.52127">
        <ele>60</ele>
        <time>2018-05-31T14:43:48Z</time>
      </trkpt>
      <trkpt lat="46.49473" lon="-1.52111">
        <ele>60</ele>
        <time>2018-05-31T14:44:00Z</time>
      </trkpt>
      <trkpt lat="46.49476" lon="-1.52106">
        <ele>60</ele>
        <time>2018-05-31T14:44:05Z</time>
      </trkpt>
      <trkpt lat="46.49483" lon="-1.52102">
        <ele>60</ele>
        <time>2018-05-31T14:44:13Z</time>
      </trkpt>
      <trkpt lat="46.49488" lon="-1.52097">
        <ele>60</ele>
        <time>2018-05-31T14:44:20Z</time>
      </trkpt>
      <trkpt lat="46.49492" lon="-1.52093">
        <ele>60</ele>
        <time>2018-05-31T14:44:25Z</time>
      </trkpt>
      <trkpt lat="46.49529" lon="-1.52052">
        <ele>60</ele>
        <time>2018-05-31T14:44:58Z</time>
      </trkpt>
      <trkpt lat="46.49553" lon="-1.5203">
        <ele>61</ele>
        <time>2018-05-31T14:45:18Z</time>
      </trkpt>
      <trkpt lat="46.49566" lon="-1.5202">
        <ele>61</ele>
        <time>2018-05-31T14:45:31Z</time>
      </trkpt>
      <trkpt lat="46.49583" lon="-1.5201">
        <ele>62</ele>
        <time>2018-05-31T14:45:44Z</time>
      </trkpt>
      <trkpt lat="46.49587" lon="-1.52008">
        <ele>62</ele>
        <time>2018-05-31T14:45:46Z</time>
      </trkpt>
      <trkpt lat="46.49598" lon="-1.52">
        <ele>62</ele>
        <time>2018-05-31T14:45:56Z</time>
      </trkpt>
      <trkpt lat="46.49623" lon="-1.51986">
        <ele>64</ele>
        <time>2018-05-31T14:46:17Z</time>
      </trkpt>
      <trkpt lat="46.49655" lon="-1.51971">
        <ele>64</ele>
        <time>2018-05-31T14:46:42Z</time>
      </trkpt>
      <trkpt lat="46.4967" lon="-1.51967">
        <ele>64</ele>
        <time>2018-05-31T14:46:52Z</time>
      </trkpt>
      <trkpt lat="46.49681" lon="-1.5196">
        <ele>64</ele>
        <time>2018-05-31T14:47:00Z</time>
      </trkpt>
      <trkpt lat="46.49697" lon="-1.51953">
        <ele>64</ele>
        <time>2018-05-31T14:47:15Z</time>
      </trkpt>
      <trkpt lat="46.49712" lon="-1.5195">
        <ele>64</ele>
        <time>2018-05-31T14:47:25Z</time>
      </trkpt>
      <trkpt lat="46.4973" lon="-1.51943">
        <ele>63</ele>
        <time>2018-05-31T14:47:38Z</time>
      </trkpt>
      <trkpt lat="46.4975" lon="-1.51929">
        <ele>62</ele>
        <time>2018-05-31T14:47:56Z</time>
      </trkpt>
      <trkpt lat="46.49754" lon="-1.51925">
        <ele>62</ele>
        <time>2018-05-31T14:48:03Z</time>
      </trkpt>
      <trkpt lat="46.49778" lon="-1.51913">
        <ele>62</ele>
        <time>2018-05-31T14:48:21Z</time>
      </trkpt>
      <trkpt lat="46.49804" lon="-1.51905">
        <ele>61</ele>
        <time>2018-05-31T14:48:39Z</time>
      </trkpt>
      <trkpt lat="46.49815" lon="-1.51901">
        <ele>61</ele>
        <time>2018-05-31T14:48:47Z</time>
      </trkpt>
      <trkpt lat="46.49839" lon="-1.51886">
        <ele>59</ele>
        <time>2018-05-31T14:49:13Z</time>
      </trkpt>
      <trkpt lat="46.49847" lon="-1.51879">
        <ele>59</ele>
        <time>2018-05-31T14:49:20Z</time>
      </trkpt>
      <trkpt lat="46.49862" lon="-1.5187">
        <ele>59</ele>
        <time>2018-05-31T14:49:33Z</time>
      </trkpt>
      <trkpt lat="46.49869" lon="-1.51866">
        <ele>58</ele>
        <time>2018-05-31T14:49:38Z</time>
      </trkpt>
      <trkpt lat="46.49882" lon="-1.51857">
        <ele>58</ele>
        <time>2018-05-31T14:49:48Z</time>
      </trkpt>
      <trkpt lat="46.4989" lon="-1.51849">
        <ele>58</ele>
        <time>2018-05-31T14:49:56Z</time>
      </trkpt>
      <trkpt lat="46.49894" lon="-1.51848">
        <ele>58</ele>
        <time>2018-05-31T14:49:59Z</time>
      </trkpt>
      <trkpt lat="46.49918" lon="-1.51831">
        <ele>57</ele>
        <time>2018-05-31T14:50:14Z</time>
      </trkpt>
      <trkpt lat="46.49921" lon="-1.5183">
        <ele>57</ele>
        <time>2018-05-31T14:50:16Z</time>
      </trkpt>
      <trkpt lat="46.49948" lon="-1.51822">
        <ele>56</ele>
        <time>2018-05-31T14:50:29Z</time>
      </trkpt>
      <trkpt lat="46.49967" lon="-1.51814">
        <ele>56</ele>
        <time>2018-05-31T14:50:42Z</time>
      </trkpt>
      <trkpt lat="46.49979" lon="-1.51806">
        <ele>56</ele>
        <time>2018-05-31T14:50:54Z</time>
      </trkpt>
      <trkpt lat="46.49994" lon="-1.51801">
        <ele>56</ele>
        <time>2018-05-31T14:51:12Z</time>
      </trkpt>
      <trkpt lat="46.50001" lon="-1.518">
        <ele>57</ele>
        <time>2018-05-31T14:51:20Z</time>
      </trkpt>
      <trkpt lat="46.50009" lon="-1.51797">
        <ele>57</ele>
        <time>2018-05-31T14:51:28Z</time>
      </trkpt>
      <trkpt lat="46.50025" lon="-1.51793">
        <ele>57</ele>
        <time>2018-05-31T14:51:38Z</time>
      </trkpt>
      <trkpt lat="46.50049" lon="-1.51786">
        <ele>58</ele>
        <time>2018-05-31T14:51:55Z</time>
      </trkpt>
      <trkpt lat="46.50077" lon="-1.51781">
        <ele>58</ele>
        <time>2018-05-31T14:52:16Z</time>
      </trkpt>
      <trkpt lat="46.50086" lon="-1.51778">
        <ele>59</ele>
        <time>2018-05-31T14:52:23Z</time>
      </trkpt>
      <trkpt lat="46.501" lon="-1.51778">
        <ele>59</ele>
        <time>2018-05-31T14:52:36Z</time>
      </trkpt>
      <trkpt lat="46.50113" lon="-1.51774">
        <ele>59</ele>
        <time>2018-05-31T14:52:43Z</time>
      </trkpt>
      <trkpt lat="46.50123" lon="-1.51768">
        <ele>60</ele>
        <time>2018-05-31T14:52:51Z</time>
      </trkpt>
      <trkpt lat="46.50146" lon="-1.51753">
        <ele>60</ele>
        <time>2018-05-31T14:53:11Z</time>
      </trkpt>
      <trkpt lat="46.50158" lon="-1.51748">
        <ele>61</ele>
        <time>2018-05-31T14:53:21Z</time>
      </trkpt>
      <trkpt lat="46.50172" lon="-1.51744">
        <ele>61</ele>
        <time>2018-05-31T14:53:29Z</time>
      </trkpt>
      <trkpt lat="46.50183" lon="-1.51742">
        <ele>62</ele>
        <time>2018-05-31T14:53:37Z</time>
      </trkpt>
      <trkpt lat="46.502" lon="-1.51741">
        <ele>62</ele>
        <time>2018-05-31T14:53:47Z</time>
      </trkpt>
      <trkpt lat="46.5024" lon="-1.51736">
        <ele>63</ele>
        <time>2018-05-31T14:54:20Z</time>
      </trkpt>
      <trkpt lat="46.50249" lon="-1.51732">
        <ele>63</ele>
        <time>2018-05-31T14:54:28Z</time>
      </trkpt>
      <trkpt lat="46.50254" lon="-1.51732">
        <ele>63</ele>
        <time>2018-05-31T14:54:33Z</time>
      </trkpt>
      <trkpt lat="46.50257" lon="-1.51737">
        <ele>63</ele>
        <time>2018-05-31T14:54:40Z</time>
      </trkpt>
      <trkpt lat="46.50259" lon="-1.51737">
        <ele>63</ele>
        <time>2018-05-31T14:54:46Z</time>
      </trkpt>
      <trkpt lat="46.50261" lon="-1.51727">
        <ele>63</ele>
        <time>2018-05-31T14:55:03Z</time>
      </trkpt>
      <trkpt lat="46.5026" lon="-1.51723">
        <ele>63</ele>
        <time>2018-05-31T14:55:16Z</time>
      </trkpt>
      <trkpt lat="46.50262" lon="-1.51725">
        <ele>63</ele>
        <time>2018-05-31T14:55:32Z</time>
      </trkpt>
      <trkpt lat="46.50265" lon="-1.51723">
        <ele>63</ele>
        <time>2018-05-31T14:55:42Z</time>
      </trkpt>
      <trkpt lat="46.50264" lon="-1.51722">
        <ele>63</ele>
        <time>2018-05-31T14:55:45Z</time>
      </trkpt>
      <trkpt lat="46.50265" lon="-1.51717">
        <ele>63</ele>
        <time>2018-05-31T14:56:10Z</time>
      </trkpt>
      <trkpt lat="46.50264" lon="-1.51713">
        <ele>63</ele>
        <time>2018-05-31T14:56:23Z</time>
      </trkpt>
      <trkpt lat="46.50265" lon="-1.51713">
        <ele>63</ele>
        <time>2018-05-31T14:56:30Z</time>
      </trkpt>
      <trkpt lat="46.50265" lon="-1.51716">
        <ele>63</ele>
        <time>2018-05-31T14:56:43Z</time>
      </trkpt>
      <trkpt lat="46.50264" lon="-1.51717">
        <ele>63</ele>
        <time>2018-05-31T14:56:50Z</time>
      </trkpt>
      <trkpt lat="46.5027" lon="-1.51714">
        <ele>63</ele>
        <time>2018-05-31T14:57:03Z</time>
      </trkpt>
      <trkpt lat="46.50274" lon="-1.51716">
        <ele>63</ele>
        <time>2018-05-31T14:57:11Z</time>
      </trkpt>
      <trkpt lat="46.50286" lon="-1.51717">
        <ele>63</ele>
        <time>2018-05-31T14:57:23Z</time>
      </trkpt>
      <trkpt lat="46.50302" lon="-1.51723">
        <ele>63</ele>
        <time>2018-05-31T14:57:41Z</time>
      </trkpt>
      <trkpt lat="46.50304" lon="-1.51723">
        <ele>63</ele>
        <time>2018-05-31T14:57:44Z</time>
      </trkpt>
      <trkpt lat="46.50322" lon="-1.51729">
        <ele>62</ele>
        <time>2018-05-31T14:58:01Z</time>
      </trkpt>
      <trkpt lat="46.50339" lon="-1.51736">
        <ele>61</ele>
        <time>2018-05-31T14:58:14Z</time>
      </trkpt>
      <trkpt lat="46.50359" lon="-1.51745">
        <ele>61</ele>
        <time>2018-05-31T14:58:27Z</time>
      </trkpt>
      <trkpt lat="46.50384" lon="-1.5176">
        <ele>61</ele>
        <time>2018-05-31T14:58:44Z</time>
      </trkpt>
      <trkpt lat="46.50387" lon="-1.51763">
        <ele>61</ele>
        <time>2018-05-31T14:58:47Z</time>
      </trkpt>
      <trkpt lat="46.50398" lon="-1.51762">
        <ele>61</ele>
        <time>2018-05-31T14:58:57Z</time>
      </trkpt>
      <trkpt lat="46.504" lon="-1.51768">
        <ele>61</ele>
        <time>2018-05-31T14:59:05Z</time>
      </trkpt>
      <trkpt lat="46.50406" lon="-1.51775">
        <ele>61</ele>
        <time>2018-05-31T14:59:10Z</time>
      </trkpt>
      <trkpt lat="46.50409" lon="-1.51776">
        <ele>61</ele>
        <time>2018-05-31T14:59:12Z</time>
      </trkpt>
      <trkpt lat="46.50428" lon="-1.51791">
        <ele>61</ele>
        <time>2018-05-31T14:59:27Z</time>
      </trkpt>
      <trkpt lat="46.50454" lon="-1.51818">
        <ele>61</ele>
        <time>2018-05-31T14:59:50Z</time>
      </trkpt>
      <trkpt lat="46.50464" lon="-1.51832">
        <ele>61</ele>
        <time>2018-05-31T15:00:00Z</time>
      </trkpt>
      <trkpt lat="46.505" lon="-1.51863">
        <ele>62</ele>
        <time>2018-05-31T15:00:28Z</time>
      </trkpt>
      <trkpt lat="46.50505" lon="-1.51869">
        <ele>62</ele>
        <time>2018-05-31T15:00:33Z</time>
      </trkpt>
      <trkpt lat="46.50517" lon="-1.51886">
        <ele>62</ele>
        <time>2018-05-31T15:00:46Z</time>
      </trkpt>
      <trkpt lat="46.50533" lon="-1.51904">
        <ele>62</ele>
        <time>2018-05-31T15:01:01Z</time>
      </trkpt>
      <trkpt lat="46.50556" lon="-1.51926">
        <ele>64</ele>
        <time>2018-05-31T15:01:19Z</time>
      </trkpt>
      <trkpt lat="46.50567" lon="-1.51937">
        <ele>64</ele>
        <time>2018-05-31T15:01:30Z</time>
      </trkpt>
      <trkpt lat="46.50589" lon="-1.51965">
        <ele>64</ele>
        <time>2018-05-31T15:01:53Z</time>
      </trkpt>
      <trkpt lat="46.5059" lon="-1.5197">
        <ele>64</ele>
        <time>2018-05-31T15:01:58Z</time>
      </trkpt>
      <trkpt lat="46.50596" lon="-1.51972">
        <ele>64</ele>
        <time>2018-05-31T15:02:14Z</time>
      </trkpt>
      <trkpt lat="46.50597" lon="-1.51971">
        <ele>64</ele>
        <time>2018-05-31T15:02:24Z</time>
      </trkpt>
      <trkpt lat="46.50599" lon="-1.51969">
        <ele>64</ele>
        <time>2018-05-31T15:02:37Z</time>
      </trkpt>
      <trkpt lat="46.50594" lon="-1.51974">
        <ele>64</ele>
        <time>2018-05-31T15:02:45Z</time>
      </trkpt>
      <trkpt lat="46.50593" lon="-1.5198">
        <ele>65</ele>
        <time>2018-05-31T15:02:50Z</time>
      </trkpt>
      <trkpt lat="46.506" lon="-1.51999">
        <ele>65</ele>
        <time>2018-05-31T15:03:12Z</time>
      </trkpt>
      <trkpt lat="46.50607" lon="-1.52013">
        <ele>64</ele>
        <time>2018-05-31T15:03:25Z</time>
      </trkpt>
      <trkpt lat="46.50622" lon="-1.52036">
        <ele>64</ele>
        <time>2018-05-31T15:03:40Z</time>
      </trkpt>
      <trkpt lat="46.50632" lon="-1.52058">
        <ele>64</ele>
        <time>2018-05-31T15:03:55Z</time>
      </trkpt>
      <trkpt lat="46.50647" lon="-1.52075">
        <ele>63</ele>
        <time>2018-05-31T15:04:08Z</time>
      </trkpt>
      <trkpt lat="46.5066" lon="-1.52104">
        <ele>62</ele>
        <time>2018-05-31T15:04:25Z</time>
      </trkpt>
      <trkpt lat="46.50674" lon="-1.52125">
        <ele>61</ele>
        <time>2018-05-31T15:04:38Z</time>
      </trkpt>
      <trkpt lat="46.5068" lon="-1.52141">
        <ele>61</ele>
        <time>2018-05-31T15:04:45Z</time>
      </trkpt>
      <trkpt lat="46.50699" lon="-1.52165">
        <ele>61</ele>
        <time>2018-05-31T15:05:03Z</time>
      </trkpt>
      <trkpt lat="46.50708" lon="-1.52171">
        <ele>60</ele>
        <time>2018-05-31T15:05:08Z</time>
      </trkpt>
      <trkpt lat="46.50722" lon="-1.52196">
        <ele>59</ele>
        <time>2018-05-31T15:05:25Z</time>
      </trkpt>
      <trkpt lat="46.50737" lon="-1.52208">
        <ele>59</ele>
        <time>2018-05-31T15:05:40Z</time>
      </trkpt>
      <trkpt lat="46.50773" lon="-1.52222">
        <ele>55</ele>
        <time>2018-05-31T15:06:03Z</time>
      </trkpt>
      <trkpt lat="46.50782" lon="-1.52222">
        <ele>55</ele>
        <time>2018-05-31T15:06:08Z</time>
      </trkpt>
      <trkpt lat="46.50799" lon="-1.52219">
        <ele>54</ele>
        <time>2018-05-31T15:06:21Z</time>
      </trkpt>
      <trkpt lat="46.50833" lon="-1.52201">
        <ele>54</ele>
        <time>2018-05-31T15:06:41Z</time>
      </trkpt>
      <trkpt lat="46.50839" lon="-1.52198">
        <ele>50</ele>
        <time>2018-05-31T15:06:46Z</time>
      </trkpt>
      <trkpt lat="46.50858" lon="-1.52197">
        <ele>50</ele>
        <time>2018-05-31T15:06:59Z</time>
      </trkpt>
      <trkpt lat="46.5087" lon="-1.52203">
        <ele>49</ele>
        <time>2018-05-31T15:07:07Z</time>
      </trkpt>
      <trkpt lat="46.50879" lon="-1.52213">
        <ele>48</ele>
        <time>2018-05-31T15:07:14Z</time>
      </trkpt>
      <trkpt lat="46.50893" lon="-1.52225">
        <ele>47</ele>
        <time>2018-05-31T15:07:24Z</time>
      </trkpt>
      <trkpt lat="46.50896" lon="-1.5223">
        <ele>47</ele>
        <time>2018-05-31T15:07:27Z</time>
      </trkpt>
      <trkpt lat="46.50901" lon="-1.52244">
        <ele>45</ele>
        <time>2018-05-31T15:07:37Z</time>
      </trkpt>
      <trkpt lat="46.50901" lon="-1.52263">
        <ele>45</ele>
        <time>2018-05-31T15:07:47Z</time>
      </trkpt>
      <trkpt lat="46.50892" lon="-1.52272">
        <ele>46</ele>
        <time>2018-05-31T15:07:57Z</time>
      </trkpt>
      <trkpt lat="46.50891" lon="-1.52274">
        <ele>46</ele>
        <time>2018-05-31T15:08:00Z</time>
      </trkpt>
      <trkpt lat="46.50884" lon="-1.52292">
        <ele>46</ele>
        <time>2018-05-31T15:08:15Z</time>
      </trkpt>
      <trkpt lat="46.50887" lon="-1.52297">
        <ele>46</ele>
        <time>2018-05-31T15:08:25Z</time>
      </trkpt>
      <trkpt lat="46.50884" lon="-1.52302">
        <ele>46</ele>
        <time>2018-05-31T15:08:35Z</time>
      </trkpt>
      <trkpt lat="46.50883" lon="-1.52304">
        <ele>46</ele>
        <time>2018-05-31T15:08:40Z</time>
      </trkpt>
      <trkpt lat="46.50886" lon="-1.52306">
        <ele>46</ele>
        <time>2018-05-31T15:08:55Z</time>
      </trkpt>
      <trkpt lat="46.50885" lon="-1.52316">
        <ele>46</ele>
        <time>2018-05-31T15:09:31Z</time>
      </trkpt>
      <trkpt lat="46.50882" lon="-1.5232">
        <ele>46</ele>
        <time>2018-05-31T15:09:44Z</time>
      </trkpt>
      <trkpt lat="46.50888" lon="-1.5232">
        <ele>46</ele>
        <time>2018-05-31T15:09:56Z</time>
      </trkpt>
      <trkpt lat="46.50888" lon="-1.52317">
        <ele>46</ele>
        <time>2018-05-31T15:10:17Z</time>
      </trkpt>
      <trkpt lat="46.50887" lon="-1.52324">
        <ele>46</ele>
        <time>2018-05-31T15:11:06Z</time>
      </trkpt>
      <trkpt lat="46.50889" lon="-1.52325">
        <ele>46</ele>
        <time>2018-05-31T15:11:11Z</time>
      </trkpt>
      <trkpt lat="46.50887" lon="-1.52328">
        <ele>46</ele>
        <time>2018-05-31T15:11:18Z</time>
      </trkpt>
      <trkpt lat="46.5089" lon="-1.52328">
        <ele>46</ele>
        <time>2018-05-31T15:11:26Z</time>
      </trkpt>
      <trkpt lat="46.50891" lon="-1.5233">
        <ele>46</ele>
        <time>2018-05-31T15:11:36Z</time>
      </trkpt>
      <trkpt lat="46.50888" lon="-1.52331">
        <ele>46</ele>
        <time>2018-05-31T15:11:44Z</time>
      </trkpt>
      <trkpt lat="46.50887" lon="-1.52329">
        <ele>46</ele>
        <time>2018-05-31T15:11:52Z</time>
      </trkpt>
      <trkpt lat="46.50887" lon="-1.52327">
        <ele>46</ele>
        <time>2018-05-31T15:12:00Z</time>
      </trkpt>
      <trkpt lat="46.50883" lon="-1.52323">
        <ele>46</ele>
        <time>2018-05-31T15:12:10Z</time>
      </trkpt>
      <trkpt lat="46.50881" lon="-1.5232">
        <ele>46</ele>
        <time>2018-05-31T15:12:17Z</time>
      </trkpt>
      <trkpt lat="46.50881" lon="-1.52318">
        <ele>46</ele>
        <time>2018-05-31T15:12:23Z</time>
      </trkpt>
      <trkpt lat="46.50886" lon="-1.52306">
        <ele>46</ele>
        <time>2018-05-31T15:12:40Z</time>
      </trkpt>
      <trkpt lat="46.50878" lon="-1.52298">
        <ele>46</ele>
        <time>2018-05-31T15:13:01Z</time>
      </trkpt>
      <trkpt lat="46.50881" lon="-1.52298">
        <ele>46</ele>
        <time>2018-05-31T15:13:06Z</time>
      </trkpt>
      <trkpt lat="46.50887" lon="-1.52303">
        <ele>46</ele>
        <time>2018-05-31T15:13:26Z</time>
      </trkpt>
      <trkpt lat="46.50888" lon="-1.52309">
        <ele>46</ele>
        <time>2018-05-31T15:13:39Z</time>
      </trkpt>
      <trkpt lat="46.50888" lon="-1.52306">
        <ele>46</ele>
        <time>2018-05-31T15:13:55Z</time>
      </trkpt>
      <trkpt lat="46.50885" lon="-1.52311">
        <ele>46</ele>
        <time>2018-05-31T15:14:10Z</time>
      </trkpt>
      <trkpt lat="46.50887" lon="-1.52316">
        <ele>46</ele>
        <time>2018-05-31T15:14:20Z</time>
      </trkpt>
      <trkpt lat="46.50892" lon="-1.52319">
        <ele>46</ele>
        <time>2018-05-31T15:14:28Z</time>
      </trkpt>
      <trkpt lat="46.50899" lon="-1.52314">
        <ele>46</ele>
        <time>2018-05-31T15:14:43Z</time>
      </trkpt>
      <trkpt lat="46.50893" lon="-1.52311">
        <ele>46</ele>
        <time>2018-05-31T15:14:58Z</time>
      </trkpt>
      <trkpt lat="46.50892" lon="-1.52311">
        <ele>46</ele>
        <time>2018-05-31T15:15:01Z</time>
      </trkpt>
      <trkpt lat="46.50891" lon="-1.52307">
        <ele>46</ele>
        <time>2018-05-31T15:15:11Z</time>
      </trkpt>
      <trkpt lat="46.50891" lon="-1.52311">
        <ele>46</ele>
        <time>2018-05-31T15:15:26Z</time>
      </trkpt>
      <trkpt lat="46.50888" lon="-1.52313">
        <ele>46</ele>
        <time>2018-05-31T15:15:31Z</time>
      </trkpt>
      <trkpt lat="46.50886" lon="-1.52318">
        <ele>46</ele>
        <time>2018-05-31T15:15:57Z</time>
      </trkpt>
      <trkpt lat="46.50887" lon="-1.52319">
        <ele>46</ele>
        <time>2018-05-31T15:16:10Z</time>
      </trkpt>
      <trkpt lat="46.50889" lon="-1.52317">
        <ele>46</ele>
        <time>2018-05-31T15:16:17Z</time>
      </trkpt>
      <trkpt lat="46.50895" lon="-1.52334">
        <ele>46</ele>
        <time>2018-05-31T15:16:38Z</time>
      </trkpt>
      <trkpt lat="46.50899" lon="-1.52385">
        <ele>47</ele>
        <time>2018-05-31T15:17:14Z</time>
      </trkpt>
      <trkpt lat="46.50897" lon="-1.52389">
        <ele>47</ele>
        <time>2018-05-31T15:17:17Z</time>
      </trkpt>
      <trkpt lat="46.50902" lon="-1.52398">
        <ele>47</ele>
        <time>2018-05-31T15:17:27Z</time>
      </trkpt>
      <trkpt lat="46.50911" lon="-1.524">
        <ele>47</ele>
        <time>2018-05-31T15:17:37Z</time>
      </trkpt>
      <trkpt lat="46.50921" lon="-1.52396">
        <ele>48</ele>
        <time>2018-05-31T15:17:44Z</time>
      </trkpt>
      <trkpt lat="46.50928" lon="-1.52389">
        <ele>48</ele>
        <time>2018-05-31T15:17:52Z</time>
      </trkpt>
      <trkpt lat="46.5094" lon="-1.52371">
        <ele>48</ele>
        <time>2018-05-31T15:18:10Z</time>
      </trkpt>
      <trkpt lat="46.50952" lon="-1.52355">
        <ele>48</ele>
        <time>2018-05-31T15:18:23Z</time>
      </trkpt>
      <trkpt lat="46.50956" lon="-1.52352">
        <ele>48</ele>
        <time>2018-05-31T15:18:28Z</time>
      </trkpt>
      <trkpt lat="46.50974" lon="-1.52343">
        <ele>49</ele>
        <time>2018-05-31T15:18:43Z</time>
      </trkpt>
      <trkpt lat="46.50993" lon="-1.52337">
        <ele>49</ele>
        <time>2018-05-31T15:19:01Z</time>
      </trkpt>
      <trkpt lat="46.50996" lon="-1.52338">
        <ele>50</ele>
        <time>2018-05-31T15:19:06Z</time>
      </trkpt>
      <trkpt lat="46.51004" lon="-1.5234">
        <ele>51</ele>
        <time>2018-05-31T15:19:14Z</time>
      </trkpt>
      <trkpt lat="46.51018" lon="-1.52352">
        <ele>51</ele>
        <time>2018-05-31T15:19:27Z</time>
      </trkpt>
      <trkpt lat="46.51024" lon="-1.52355">
        <ele>52</ele>
        <time>2018-05-31T15:19:32Z</time>
      </trkpt>
      <trkpt lat="46.51037" lon="-1.52398">
        <ele>52</ele>
        <time>2018-05-31T15:20:03Z</time>
      </trkpt>
      <trkpt lat="46.51038" lon="-1.52403">
        <ele>53</ele>
        <time>2018-05-31T15:20:06Z</time>
      </trkpt>
      <trkpt lat="46.51049" lon="-1.52418">
        <ele>54</ele>
        <time>2018-05-31T15:20:19Z</time>
      </trkpt>
      <trkpt lat="46.51049" lon="-1.52424">
        <ele>54</ele>
        <time>2018-05-31T15:20:24Z</time>
      </trkpt>
      <trkpt lat="46.51046" lon="-1.52437">
        <ele>54</ele>
        <time>2018-05-31T15:20:32Z</time>
      </trkpt>
      <trkpt lat="46.51048" lon="-1.52453">
        <ele>55</ele>
        <time>2018-05-31T15:20:43Z</time>
      </trkpt>
      <trkpt lat="46.51053" lon="-1.52473">
        <ele>55</ele>
        <time>2018-05-31T15:20:55Z</time>
      </trkpt>
      <trkpt lat="46.51051" lon="-1.52487">
        <ele>55</ele>
        <time>2018-05-31T15:21:03Z</time>
      </trkpt>
      <trkpt lat="46.51056" lon="-1.52528">
        <ele>56</ele>
        <time>2018-05-31T15:21:26Z</time>
      </trkpt>
      <trkpt lat="46.51058" lon="-1.52554">
        <ele>56</ele>
        <time>2018-05-31T15:21:39Z</time>
      </trkpt>
      <trkpt lat="46.51062" lon="-1.52567">
        <ele>56</ele>
        <time>2018-05-31T15:21:47Z</time>
      </trkpt>
      <trkpt lat="46.51064" lon="-1.52584">
        <ele>57</ele>
        <time>2018-05-31T15:21:57Z</time>
      </trkpt>
      <trkpt lat="46.51076" lon="-1.52604">
        <ele>57</ele>
        <time>2018-05-31T15:22:13Z</time>
      </trkpt>
      <trkpt lat="46.51081" lon="-1.52634">
        <ele>57</ele>
        <time>2018-05-31T15:22:30Z</time>
      </trkpt>
      <trkpt lat="46.51088" lon="-1.52653">
        <ele>57</ele>
        <time>2018-05-31T15:22:43Z</time>
      </trkpt>
      <trkpt lat="46.51093" lon="-1.52676">
        <ele>58</ele>
        <time>2018-05-31T15:22:56Z</time>
      </trkpt>
      <trkpt lat="46.51094" lon="-1.52686">
        <ele>59</ele>
        <time>2018-05-31T15:23:01Z</time>
      </trkpt>
      <trkpt lat="46.51104" lon="-1.52709">
        <ele>60</ele>
        <time>2018-05-31T15:23:17Z</time>
      </trkpt>
      <trkpt lat="46.51109" lon="-1.52728">
        <ele>61</ele>
        <time>2018-05-31T15:23:27Z</time>
      </trkpt>
      <trkpt lat="46.51112" lon="-1.52752">
        <ele>63</ele>
        <time>2018-05-31T15:23:42Z</time>
      </trkpt>
      <trkpt lat="46.51113" lon="-1.52761">
        <ele>63</ele>
        <time>2018-05-31T15:23:47Z</time>
      </trkpt>
      <trkpt lat="46.51118" lon="-1.52781">
        <ele>63</ele>
        <time>2018-05-31T15:24:08Z</time>
      </trkpt>
      <trkpt lat="46.51121" lon="-1.52788">
        <ele>63</ele>
        <time>2018-05-31T15:24:13Z</time>
      </trkpt>
      <trkpt lat="46.51125" lon="-1.52809">
        <ele>64</ele>
        <time>2018-05-31T15:24:26Z</time>
      </trkpt>
      <trkpt lat="46.51135" lon="-1.5286">
        <ele>64</ele>
        <time>2018-05-31T15:24:57Z</time>
      </trkpt>
      <trkpt lat="46.51145" lon="-1.52886">
        <ele>64</ele>
        <time>2018-05-31T15:25:12Z</time>
      </trkpt>
      <trkpt lat="46.51149" lon="-1.529">
        <ele>65</ele>
        <time>2018-05-31T15:25:19Z</time>
      </trkpt>
      <trkpt lat="46.5116" lon="-1.52945">
        <ele>65</ele>
        <time>2018-05-31T15:25:45Z</time>
      </trkpt>
      <trkpt lat="46.51165" lon="-1.52957">
        <ele>65</ele>
        <time>2018-05-31T15:25:52Z</time>
      </trkpt>
      <trkpt lat="46.51167" lon="-1.52971">
        <ele>66</ele>
        <time>2018-05-31T15:26:00Z</time>
      </trkpt>
      <trkpt lat="46.51168" lon="-1.52983">
        <ele>65</ele>
        <time>2018-05-31T15:26:05Z</time>
      </trkpt>
      <trkpt lat="46.51174" lon="-1.53008">
        <ele>65</ele>
        <time>2018-05-31T15:26:18Z</time>
      </trkpt>
      <trkpt lat="46.51179" lon="-1.53041">
        <ele>66</ele>
        <time>2018-05-31T15:26:36Z</time>
      </trkpt>
      <trkpt lat="46.51188" lon="-1.53054">
        <ele>66</ele>
        <time>2018-05-31T15:26:49Z</time>
      </trkpt>
      <trkpt lat="46.5119" lon="-1.53053">
        <ele>66</ele>
        <time>2018-05-31T15:27:04Z</time>
      </trkpt>
      <trkpt lat="46.5119" lon="-1.53051">
        <ele>66</ele>
        <time>2018-05-31T15:27:27Z</time>
      </trkpt>
      <trkpt lat="46.51195" lon="-1.5306">
        <ele>66</ele>
        <time>2018-05-31T15:27:39Z</time>
      </trkpt>
      <trkpt lat="46.512" lon="-1.53075">
        <ele>66</ele>
        <time>2018-05-31T15:27:49Z</time>
      </trkpt>
      <trkpt lat="46.51204" lon="-1.53079">
        <ele>66</ele>
        <time>2018-05-31T15:28:02Z</time>
      </trkpt>
      <trkpt lat="46.51224" lon="-1.53092">
        <ele>65</ele>
        <time>2018-05-31T15:28:17Z</time>
      </trkpt>
      <trkpt lat="46.51237" lon="-1.53097">
        <ele>65</ele>
        <time>2018-05-31T15:28:30Z</time>
      </trkpt>
      <trkpt lat="46.51253" lon="-1.53099">
        <ele>66</ele>
        <time>2018-05-31T15:28:42Z</time>
      </trkpt>
      <trkpt lat="46.51265" lon="-1.53107">
        <ele>66</ele>
        <time>2018-05-31T15:28:55Z</time>
      </trkpt>
      <trkpt lat="46.51279" lon="-1.53113">
        <ele>66</ele>
        <time>2018-05-31T15:29:02Z</time>
      </trkpt>
      <trkpt lat="46.51297" lon="-1.53126">
        <ele>66</ele>
        <time>2018-05-31T15:29:17Z</time>
      </trkpt>
      <trkpt lat="46.51305" lon="-1.5314">
        <ele>66</ele>
        <time>2018-05-31T15:29:30Z</time>
      </trkpt>
      <trkpt lat="46.51309" lon="-1.53154">
        <ele>66</ele>
        <time>2018-05-31T15:29:40Z</time>
      </trkpt>
      <trkpt lat="46.51316" lon="-1.5319">
        <ele>66</ele>
        <time>2018-05-31T15:29:58Z</time>
      </trkpt>
      <trkpt lat="46.51322" lon="-1.53206">
        <ele>66</ele>
        <time>2018-05-31T15:30:08Z</time>
      </trkpt>
      <trkpt lat="46.51322" lon="-1.5321">
        <ele>66</ele>
        <time>2018-05-31T15:30:10Z</time>
      </trkpt>
      <trkpt lat="46.51326" lon="-1.53233">
        <ele>67</ele>
        <time>2018-05-31T15:30:23Z</time>
      </trkpt>
      <trkpt lat="46.51326" lon="-1.53248">
        <ele>67</ele>
        <time>2018-05-31T15:30:41Z</time>
      </trkpt>
      <trkpt lat="46.51324" lon="-1.53254">
        <ele>68</ele>
        <time>2018-05-31T15:30:54Z</time>
      </trkpt>
      <trkpt lat="46.51311" lon="-1.53272">
        <ele>67</ele>
        <time>2018-05-31T15:31:14Z</time>
      </trkpt>
      <trkpt lat="46.51299" lon="-1.53298">
        <ele>68</ele>
        <time>2018-05-31T15:31:32Z</time>
      </trkpt>
      <trkpt lat="46.51288" lon="-1.53313">
        <ele>67</ele>
        <time>2018-05-31T15:31:44Z</time>
      </trkpt>
      <trkpt lat="46.51283" lon="-1.53323">
        <ele>67</ele>
        <time>2018-05-31T15:31:49Z</time>
      </trkpt>
      <trkpt lat="46.51278" lon="-1.53338">
        <ele>68</ele>
        <time>2018-05-31T15:31:59Z</time>
      </trkpt>
      <trkpt lat="46.51273" lon="-1.53346">
        <ele>68</ele>
        <time>2018-05-31T15:32:05Z</time>
      </trkpt>
      <trkpt lat="46.51264" lon="-1.53358">
        <ele>68</ele>
        <time>2018-05-31T15:32:12Z</time>
      </trkpt>
      <trkpt lat="46.51255" lon="-1.53367">
        <ele>68</ele>
        <time>2018-05-31T15:32:22Z</time>
      </trkpt>
      <trkpt lat="46.51251" lon="-1.53373">
        <ele>68</ele>
        <time>2018-05-31T15:32:28Z</time>
      </trkpt>
      <trkpt lat="46.51245" lon="-1.53386">
        <ele>65</ele>
        <time>2018-05-31T15:32:38Z</time>
      </trkpt>
      <trkpt lat="46.51237" lon="-1.53413">
        <ele>66</ele>
        <time>2018-05-31T15:32:50Z</time>
      </trkpt>
      <trkpt lat="46.51229" lon="-1.53428">
        <ele>65</ele>
        <time>2018-05-31T15:33:00Z</time>
      </trkpt>
      <trkpt lat="46.51213" lon="-1.53453">
        <ele>64</ele>
        <time>2018-05-31T15:33:18Z</time>
      </trkpt>
      <trkpt lat="46.512" lon="-1.53477">
        <ele>63</ele>
        <time>2018-05-31T15:33:33Z</time>
      </trkpt>
      <trkpt lat="46.51196" lon="-1.5349">
        <ele>63</ele>
        <time>2018-05-31T15:33:41Z</time>
      </trkpt>
      <trkpt lat="46.51177" lon="-1.53529">
        <ele>63</ele>
        <time>2018-05-31T15:34:08Z</time>
      </trkpt>
      <trkpt lat="46.51173" lon="-1.53531">
        <ele>63</ele>
        <time>2018-05-31T15:34:18Z</time>
      </trkpt>
      <trkpt lat="46.51168" lon="-1.5354">
        <ele>63</ele>
        <time>2018-05-31T15:34:26Z</time>
      </trkpt>
      <trkpt lat="46.5117" lon="-1.53548">
        <ele>63</ele>
        <time>2018-05-31T15:34:33Z</time>
      </trkpt>
      <trkpt lat="46.51172" lon="-1.5355">
        <ele>63</ele>
        <time>2018-05-31T15:34:46Z</time>
      </trkpt>
      <trkpt lat="46.51171" lon="-1.53551">
        <ele>63</ele>
        <time>2018-05-31T15:34:56Z</time>
      </trkpt>
      <trkpt lat="46.51169" lon="-1.53551">
        <ele>63</ele>
        <time>2018-05-31T15:35:06Z</time>
      </trkpt>
      <trkpt lat="46.5117" lon="-1.53554">
        <ele>63</ele>
        <time>2018-05-31T15:35:24Z</time>
      </trkpt>
      <trkpt lat="46.51169" lon="-1.53555">
        <ele>63</ele>
        <time>2018-05-31T15:35:36Z</time>
      </trkpt>
      <trkpt lat="46.51171" lon="-1.53552">
        <ele>63</ele>
        <time>2018-05-31T15:35:44Z</time>
      </trkpt>
      <trkpt lat="46.51173" lon="-1.53547">
        <ele>63</ele>
        <time>2018-05-31T15:35:56Z</time>
      </trkpt>
      <trkpt lat="46.51174" lon="-1.53542">
        <ele>63</ele>
        <time>2018-05-31T15:36:11Z</time>
      </trkpt>
      <trkpt lat="46.51172" lon="-1.53548">
        <ele>63</ele>
        <time>2018-05-31T15:36:24Z</time>
      </trkpt>
      <trkpt lat="46.51169" lon="-1.53547">
        <ele>63</ele>
        <time>2018-05-31T15:36:34Z</time>
      </trkpt>
      <trkpt lat="46.51168" lon="-1.53547">
        <ele>63</ele>
        <time>2018-05-31T15:36:44Z</time>
      </trkpt>
      <trkpt lat="46.51166" lon="-1.53553">
        <ele>60</ele>
        <time>2018-05-31T15:36:52Z</time>
      </trkpt>
      <trkpt lat="46.5116" lon="-1.53563">
        <ele>60</ele>
        <time>2018-05-31T15:37:04Z</time>
      </trkpt>
      <trkpt lat="46.51152" lon="-1.53591">
        <ele>61</ele>
        <time>2018-05-31T15:37:22Z</time>
      </trkpt>
      <trkpt lat="46.51141" lon="-1.53608">
        <ele>60</ele>
        <time>2018-05-31T15:37:35Z</time>
      </trkpt>
      <trkpt lat="46.51131" lon="-1.53624">
        <ele>60</ele>
        <time>2018-05-31T15:37:50Z</time>
      </trkpt>
      <trkpt lat="46.5113" lon="-1.5363">
        <ele>60</ele>
        <time>2018-05-31T15:38:13Z</time>
      </trkpt>
      <trkpt lat="46.51125" lon="-1.53642">
        <ele>59</ele>
        <time>2018-05-31T15:38:24Z</time>
      </trkpt>
      <trkpt lat="46.51117" lon="-1.53651">
        <ele>59</ele>
        <time>2018-05-31T15:38:31Z</time>
      </trkpt>
      <trkpt lat="46.51113" lon="-1.53658">
        <ele>59</ele>
        <time>2018-05-31T15:38:37Z</time>
      </trkpt>
      <trkpt lat="46.51096" lon="-1.53679">
        <ele>57</ele>
        <time>2018-05-31T15:38:54Z</time>
      </trkpt>
      <trkpt lat="46.51069" lon="-1.53733">
        <ele>53</ele>
        <time>2018-05-31T15:39:30Z</time>
      </trkpt>
      <trkpt lat="46.5106" lon="-1.53753">
        <ele>53</ele>
        <time>2018-05-31T15:39:41Z</time>
      </trkpt>
      <trkpt lat="46.51051" lon="-1.53764">
        <ele>53</ele>
        <time>2018-05-31T15:39:53Z</time>
      </trkpt>
      <trkpt lat="46.51052" lon="-1.53766">
        <ele>53</ele>
        <time>2018-05-31T15:40:01Z</time>
      </trkpt>
      <trkpt lat="46.51052" lon="-1.53771">
        <ele>53</ele>
        <time>2018-05-31T15:40:11Z</time>
      </trkpt>
      <trkpt lat="46.51046" lon="-1.53776">
        <ele>53</ele>
        <time>2018-05-31T15:40:21Z</time>
      </trkpt>
      <trkpt lat="46.51038" lon="-1.53765">
        <ele>52</ele>
        <time>2018-05-31T15:40:34Z</time>
      </trkpt>
      <trkpt lat="46.51037" lon="-1.53767">
        <ele>52</ele>
        <time>2018-05-31T15:40:37Z</time>
      </trkpt>
      <trkpt lat="46.51036" lon="-1.5376">
        <ele>52</ele>
        <time>2018-05-31T15:40:52Z</time>
      </trkpt>
      <trkpt lat="46.51013" lon="-1.53734">
        <ele>52</ele>
        <time>2018-05-31T15:41:18Z</time>
      </trkpt>
      <trkpt lat="46.51007" lon="-1.53729">
        <ele>52</ele>
        <time>2018-05-31T15:41:23Z</time>
      </trkpt>
      <trkpt lat="46.50993" lon="-1.53711">
        <ele>49</ele>
        <time>2018-05-31T15:41:38Z</time>
      </trkpt>
      <trkpt lat="46.50973" lon="-1.53682">
        <ele>49</ele>
        <time>2018-05-31T15:42:02Z</time>
      </trkpt>
      <trkpt lat="46.50968" lon="-1.53677">
        <ele>48</ele>
        <time>2018-05-31T15:42:07Z</time>
      </trkpt>
      <trkpt lat="46.50949" lon="-1.53654">
        <ele>47</ele>
        <time>2018-05-31T15:42:25Z</time>
      </trkpt>
      <trkpt lat="46.50929" lon="-1.53626">
        <ele>47</ele>
        <time>2018-05-31T15:42:45Z</time>
      </trkpt>
      <trkpt lat="46.50923" lon="-1.53617">
        <ele>46</ele>
        <time>2018-05-31T15:42:52Z</time>
      </trkpt>
      <trkpt lat="46.50918" lon="-1.53612">
        <ele>46</ele>
        <time>2018-05-31T15:42:58Z</time>
      </trkpt>
      <trkpt lat="46.50913" lon="-1.53606">
        <ele>42</ele>
        <time>2018-05-31T15:43:03Z</time>
      </trkpt>
      <trkpt lat="46.50903" lon="-1.53589">
        <ele>42</ele>
        <time>2018-05-31T15:43:18Z</time>
      </trkpt>
      <trkpt lat="46.50888" lon="-1.53568">
        <ele>43</ele>
        <time>2018-05-31T15:43:35Z</time>
      </trkpt>
      <trkpt lat="46.50875" lon="-1.53553">
        <ele>43</ele>
        <time>2018-05-31T15:43:48Z</time>
      </trkpt>
      <trkpt lat="46.50866" lon="-1.53548">
        <ele>43</ele>
        <time>2018-05-31T15:43:56Z</time>
      </trkpt>
      <trkpt lat="46.50853" lon="-1.53544">
        <ele>43</ele>
        <time>2018-05-31T15:44:06Z</time>
      </trkpt>
      <trkpt lat="46.50843" lon="-1.53543">
        <ele>42</ele>
        <time>2018-05-31T15:44:14Z</time>
      </trkpt>
      <trkpt lat="46.50817" lon="-1.53544">
        <ele>40</ele>
        <time>2018-05-31T15:44:31Z</time>
      </trkpt>
      <trkpt lat="46.50811" lon="-1.53547">
        <ele>39</ele>
        <time>2018-05-31T15:44:36Z</time>
      </trkpt>
      <trkpt lat="46.50809" lon="-1.53546">
        <ele>39</ele>
        <time>2018-05-31T15:44:39Z</time>
      </trkpt>
      <trkpt lat="46.50769" lon="-1.5355">
        <ele>38</ele>
        <time>2018-05-31T15:45:09Z</time>
      </trkpt>
      <trkpt lat="46.50751" lon="-1.53553">
        <ele>38</ele>
        <time>2018-05-31T15:45:24Z</time>
      </trkpt>
      <trkpt lat="46.50744" lon="-1.53556">
        <ele>36</ele>
        <time>2018-05-31T15:45:42Z</time>
      </trkpt>
      <trkpt lat="46.5074" lon="-1.53564">
        <ele>36</ele>
        <time>2018-05-31T15:46:00Z</time>
      </trkpt>
      <trkpt lat="46.50733" lon="-1.53566">
        <ele>36</ele>
        <time>2018-05-31T15:46:05Z</time>
      </trkpt>
      <trkpt lat="46.50724" lon="-1.53562">
        <ele>36</ele>
        <time>2018-05-31T15:46:15Z</time>
      </trkpt>
      <trkpt lat="46.50706" lon="-1.53547">
        <ele>36</ele>
        <time>2018-05-31T15:46:30Z</time>
      </trkpt>
      <trkpt lat="46.50691" lon="-1.53521">
        <ele>36</ele>
        <time>2018-05-31T15:46:50Z</time>
      </trkpt>
      <trkpt lat="46.50682" lon="-1.53499">
        <ele>37</ele>
        <time>2018-05-31T15:47:06Z</time>
      </trkpt>
      <trkpt lat="46.50681" lon="-1.53487">
        <ele>37</ele>
        <time>2018-05-31T15:47:13Z</time>
      </trkpt>
      <trkpt lat="46.50667" lon="-1.53443">
        <ele>38</ele>
        <time>2018-05-31T15:47:39Z</time>
      </trkpt>
      <trkpt lat="46.50659" lon="-1.53434">
        <ele>37</ele>
        <time>2018-05-31T15:47:46Z</time>
      </trkpt>
      <trkpt lat="46.50647" lon="-1.53429">
        <ele>37</ele>
        <time>2018-05-31T15:47:54Z</time>
      </trkpt>
      <trkpt lat="46.50643" lon="-1.53429">
        <ele>37</ele>
        <time>2018-05-31T15:47:57Z</time>
      </trkpt>
      <trkpt lat="46.5063" lon="-1.53436">
        <ele>38</ele>
        <time>2018-05-31T15:48:12Z</time>
      </trkpt>
      <trkpt lat="46.50623" lon="-1.53436">
        <ele>38</ele>
        <time>2018-05-31T15:48:17Z</time>
      </trkpt>
      <trkpt lat="46.50596" lon="-1.53432">
        <ele>39</ele>
        <time>2018-05-31T15:48:38Z</time>
      </trkpt>
      <trkpt lat="46.50566" lon="-1.53437">
        <ele>39</ele>
        <time>2018-05-31T15:49:01Z</time>
      </trkpt>
      <trkpt lat="46.50554" lon="-1.53437">
        <ele>39</ele>
        <time>2018-05-31T15:49:08Z</time>
      </trkpt>
      <trkpt lat="46.50531" lon="-1.53442">
        <ele>39</ele>
        <time>2018-05-31T15:49:23Z</time>
      </trkpt>
      <trkpt lat="46.50523" lon="-1.53453">
        <ele>38</ele>
        <time>2018-05-31T15:49:34Z</time>
      </trkpt>
      <trkpt lat="46.50527" lon="-1.5346">
        <ele>38</ele>
        <time>2018-05-31T15:49:41Z</time>
      </trkpt>
      <trkpt lat="46.50525" lon="-1.53468">
        <ele>38</ele>
        <time>2018-05-31T15:49:54Z</time>
      </trkpt>
    </trkseg>
  </trk>
</gpx>